<?xml version="1.0" encoding="UTF-8" standalone="no" ?>
<gpx xmlns="http://www.topografix.com/GPX/1/1" xmlns:xsi="http://www.w3.org/2001/XMLSchema-instance" xsi:schemaLocation="http://www.topografix.com/GPX/1/1 http://www.topografix.com/GPX/1/1/gpx.xsd" version="1.1" creator="VisuGPX - https://www.visugpx.com">
  <metadata>
    <name>Juliénas - Mont de Besset - Mont Fétraud</name>
    <desc><![CDATA[Circuit pédestre au départ de Juliénas]]></desc>
  </metadata>
  <trk>
    <name><![CDATA[ACTIVE LOG095511]]></name>
    <trkseg>
      <trkpt lat="46.23612" lon="4.70977">
        <ele>276.049</ele>
        <time>2011-05-25T09:55:09Z</time>
      </trkpt>
      <trkpt lat="46.23611" lon="4.70982">
        <ele>276.778</ele>
        <time>2011-05-25T09:56:08Z</time>
      </trkpt>
      <trkpt lat="46.23605" lon="4.70995">
        <ele>276.783</ele>
        <time>2011-05-25T09:56:17Z</time>
      </trkpt>
      <trkpt lat="46.23603" lon="4.70999">
        <ele>276.63</ele>
        <time>2011-05-25T09:56:20Z</time>
      </trkpt>
      <trkpt lat="46.23588" lon="4.71007">
        <ele>276.132</ele>
        <time>2011-05-25T09:56:32Z</time>
      </trkpt>
      <trkpt lat="46.23583" lon="4.71008">
        <ele>275.895</ele>
        <time>2011-05-25T09:56:35Z</time>
      </trkpt>
      <trkpt lat="46.23578" lon="4.71012">
        <ele>274.96</ele>
        <time>2011-05-25T09:56:39Z</time>
      </trkpt>
      <trkpt lat="46.23575" lon="4.71016">
        <ele>275.558</ele>
        <time>2011-05-25T09:56:42Z</time>
      </trkpt>
      <trkpt lat="46.23571" lon="4.71017">
        <ele>276.578</ele>
        <time>2011-05-25T09:56:45Z</time>
      </trkpt>
      <trkpt lat="46.23569" lon="4.71016">
        <ele>275.749</ele>
        <time>2011-05-25T09:56:47Z</time>
      </trkpt>
      <trkpt lat="46.2356" lon="4.71011">
        <ele>275.177</ele>
        <time>2011-05-25T09:56:53Z</time>
      </trkpt>
      <trkpt lat="46.23554" lon="4.71015">
        <ele>274.37</ele>
        <time>2011-05-25T09:56:58Z</time>
      </trkpt>
      <trkpt lat="46.23528" lon="4.71037">
        <ele>272.605</ele>
        <time>2011-05-25T09:57:20Z</time>
      </trkpt>
      <trkpt lat="46.23517" lon="4.71045">
        <ele>272.049</ele>
        <time>2011-05-25T09:57:33Z</time>
      </trkpt>
      <trkpt lat="46.235" lon="4.7106">
        <ele>271.623</ele>
        <time>2011-05-25T09:57:46Z</time>
      </trkpt>
      <trkpt lat="46.23497" lon="4.71061">
        <ele>270.976</ele>
        <time>2011-05-25T09:57:48Z</time>
      </trkpt>
      <trkpt lat="46.23469" lon="4.71104">
        <ele>270.572</ele>
        <time>2011-05-25T09:58:15Z</time>
      </trkpt>
      <trkpt lat="46.23468" lon="4.71154">
        <ele>270.972</ele>
        <time>2011-05-25T09:58:38Z</time>
      </trkpt>
      <trkpt lat="46.23467" lon="4.71172">
        <ele>271.249</ele>
        <time>2011-05-25T09:58:47Z</time>
      </trkpt>
      <trkpt lat="46.23468" lon="4.71189">
        <ele>271.133</ele>
        <time>2011-05-25T09:58:56Z</time>
      </trkpt>
      <trkpt lat="46.23467" lon="4.71204">
        <ele>271.548</ele>
        <time>2011-05-25T09:59:04Z</time>
      </trkpt>
      <trkpt lat="46.23458" lon="4.71253">
        <ele>270.206</ele>
        <time>2011-05-25T09:59:28Z</time>
      </trkpt>
      <trkpt lat="46.23451" lon="4.71295">
        <ele>269.087</ele>
        <time>2011-05-25T09:59:50Z</time>
      </trkpt>
      <trkpt lat="46.23444" lon="4.71353">
        <ele>267.965</ele>
        <time>2011-05-25T10:00:18Z</time>
      </trkpt>
      <trkpt lat="46.23436" lon="4.71414">
        <ele>267.833</ele>
        <time>2011-05-25T10:00:47Z</time>
      </trkpt>
      <trkpt lat="46.23437" lon="4.71475">
        <ele>266.017</ele>
        <time>2011-05-25T10:01:15Z</time>
      </trkpt>
      <trkpt lat="46.23438" lon="4.71484">
        <ele>266.025</ele>
        <time>2011-05-25T10:01:19Z</time>
      </trkpt>
      <trkpt lat="46.23447" lon="4.71515">
        <ele>265.158</ele>
        <time>2011-05-25T10:01:36Z</time>
      </trkpt>
      <trkpt lat="46.23447" lon="4.71518">
        <ele>265.268</ele>
        <time>2011-05-25T10:01:38Z</time>
      </trkpt>
      <trkpt lat="46.23464" lon="4.71538">
        <ele>265.17</ele>
        <time>2011-05-25T10:01:55Z</time>
      </trkpt>
      <trkpt lat="46.23467" lon="4.71541">
        <ele>266.874</ele>
        <time>2011-05-25T10:01:58Z</time>
      </trkpt>
      <trkpt lat="46.23476" lon="4.71555">
        <ele>266.239</ele>
        <time>2011-05-25T10:02:07Z</time>
      </trkpt>
      <trkpt lat="46.23479" lon="4.71568">
        <ele>267.121</ele>
        <time>2011-05-25T10:02:14Z</time>
      </trkpt>
      <trkpt lat="46.23482" lon="4.71571">
        <ele>265.85</ele>
        <time>2011-05-25T10:02:17Z</time>
      </trkpt>
      <trkpt lat="46.23484" lon="4.71574">
        <ele>267.203</ele>
        <time>2011-05-25T10:02:19Z</time>
      </trkpt>
      <trkpt lat="46.23492" lon="4.71597">
        <ele>268.856</ele>
        <time>2011-05-25T10:02:32Z</time>
      </trkpt>
      <trkpt lat="46.23495" lon="4.71604">
        <ele>267.596</ele>
        <time>2011-05-25T10:02:34Z</time>
      </trkpt>
      <trkpt lat="46.23508" lon="4.71631">
        <ele>267.597</ele>
        <time>2011-05-25T10:02:51Z</time>
      </trkpt>
      <trkpt lat="46.23528" lon="4.71681">
        <ele>268.223</ele>
        <time>2011-05-25T10:03:18Z</time>
      </trkpt>
      <trkpt lat="46.2355" lon="4.71744">
        <ele>269.157</ele>
        <time>2011-05-25T10:03:52Z</time>
      </trkpt>
      <trkpt lat="46.23572" lon="4.71802">
        <ele>269.625</ele>
        <time>2011-05-25T10:04:24Z</time>
      </trkpt>
      <trkpt lat="46.23595" lon="4.71848">
        <ele>269.787</ele>
        <time>2011-05-25T10:04:53Z</time>
      </trkpt>
      <trkpt lat="46.23576" lon="4.71869">
        <ele>268.159</ele>
        <time>2011-05-25T10:05:13Z</time>
      </trkpt>
      <trkpt lat="46.23575" lon="4.7187">
        <ele>268.156</ele>
        <time>2011-05-25T10:05:14Z</time>
      </trkpt>
      <trkpt lat="46.23571" lon="4.71874">
        <ele>267.85</ele>
        <time>2011-05-25T10:05:31Z</time>
      </trkpt>
      <trkpt lat="46.23571" lon="4.71874">
        <ele>267.882</ele>
        <time>2011-05-25T10:05:51Z</time>
      </trkpt>
      <trkpt lat="46.23565" lon="4.71876">
        <ele>267.835</ele>
        <time>2011-05-25T10:05:56Z</time>
      </trkpt>
      <trkpt lat="46.23542" lon="4.71884">
        <ele>265.974</ele>
        <time>2011-05-25T10:06:16Z</time>
      </trkpt>
      <trkpt lat="46.23529" lon="4.71889">
        <ele>264.951</ele>
        <time>2011-05-25T10:06:32Z</time>
      </trkpt>
      <trkpt lat="46.23524" lon="4.71892">
        <ele>264.47</ele>
        <time>2011-05-25T10:06:37Z</time>
      </trkpt>
      <trkpt lat="46.23522" lon="4.71892">
        <ele>264.475</ele>
        <time>2011-05-25T10:06:39Z</time>
      </trkpt>
      <trkpt lat="46.23494" lon="4.71902">
        <ele>262.139</ele>
        <time>2011-05-25T10:07:02Z</time>
      </trkpt>
      <trkpt lat="46.23461" lon="4.71913">
        <ele>260.529</ele>
        <time>2011-05-25T10:07:30Z</time>
      </trkpt>
      <trkpt lat="46.23445" lon="4.71924">
        <ele>260.105</ele>
        <time>2011-05-25T10:07:50Z</time>
      </trkpt>
      <trkpt lat="46.23435" lon="4.71938">
        <ele>258.993</ele>
        <time>2011-05-25T10:08:06Z</time>
      </trkpt>
      <trkpt lat="46.23431" lon="4.71944">
        <ele>258.731</ele>
        <time>2011-05-25T10:08:12Z</time>
      </trkpt>
      <trkpt lat="46.23416" lon="4.71971">
        <ele>257.403</ele>
        <time>2011-05-25T10:08:32Z</time>
      </trkpt>
      <trkpt lat="46.23405" lon="4.71986">
        <ele>256.649</ele>
        <time>2011-05-25T10:08:46Z</time>
      </trkpt>
      <trkpt lat="46.2339" lon="4.7202">
        <ele>255.514</ele>
        <time>2011-05-25T10:09:09Z</time>
      </trkpt>
      <trkpt lat="46.23378" lon="4.72046">
        <ele>254.313</ele>
        <time>2011-05-25T10:09:28Z</time>
      </trkpt>
      <trkpt lat="46.23375" lon="4.7205">
        <ele>253.704</ele>
        <time>2011-05-25T10:10:13Z</time>
      </trkpt>
      <trkpt lat="46.23366" lon="4.7207">
        <ele>253.355</ele>
        <time>2011-05-25T10:10:29Z</time>
      </trkpt>
      <trkpt lat="46.23365" lon="4.72071">
        <ele>253.484</ele>
        <time>2011-05-25T10:10:35Z</time>
      </trkpt>
      <trkpt lat="46.2336" lon="4.7209">
        <ele>253.362</ele>
        <time>2011-05-25T10:10:47Z</time>
      </trkpt>
      <trkpt lat="46.23345" lon="4.72132">
        <ele>253.807</ele>
        <time>2011-05-25T10:11:15Z</time>
      </trkpt>
      <trkpt lat="46.23344" lon="4.72155">
        <ele>254.352</ele>
        <time>2011-05-25T10:11:32Z</time>
      </trkpt>
      <trkpt lat="46.23346" lon="4.72184">
        <ele>255.187</ele>
        <time>2011-05-25T10:11:56Z</time>
      </trkpt>
      <trkpt lat="46.2335" lon="4.7222">
        <ele>255.845</ele>
        <time>2011-05-25T10:12:19Z</time>
      </trkpt>
      <trkpt lat="46.23347" lon="4.72257">
        <ele>255.873</ele>
        <time>2011-05-25T10:12:43Z</time>
      </trkpt>
      <trkpt lat="46.23341" lon="4.72296">
        <ele>255.817</ele>
        <time>2011-05-25T10:13:08Z</time>
      </trkpt>
      <trkpt lat="46.23334" lon="4.72348">
        <ele>255.976</ele>
        <time>2011-05-25T10:13:39Z</time>
      </trkpt>
      <trkpt lat="46.23327" lon="4.72393">
        <ele>256.804</ele>
        <time>2011-05-25T10:14:06Z</time>
      </trkpt>
      <trkpt lat="46.23324" lon="4.72424">
        <ele>256.672</ele>
        <time>2011-05-25T10:14:32Z</time>
      </trkpt>
      <trkpt lat="46.23319" lon="4.72455">
        <ele>256.656</ele>
        <time>2011-05-25T10:15:00Z</time>
      </trkpt>
      <trkpt lat="46.23319" lon="4.72454">
        <ele>256.334</ele>
        <time>2011-05-25T10:15:47Z</time>
      </trkpt>
      <trkpt lat="46.23319" lon="4.72462">
        <ele>256.447</ele>
        <time>2011-05-25T10:16:01Z</time>
      </trkpt>
      <trkpt lat="46.23313" lon="4.72508">
        <ele>256.923</ele>
        <time>2011-05-25T10:16:28Z</time>
      </trkpt>
      <trkpt lat="46.23311" lon="4.72554">
        <ele>257.02</ele>
        <time>2011-05-25T10:16:55Z</time>
      </trkpt>
      <trkpt lat="46.23304" lon="4.72598">
        <ele>256.505</ele>
        <time>2011-05-25T10:17:22Z</time>
      </trkpt>
      <trkpt lat="46.23319" lon="4.72605">
        <ele>256.803</ele>
        <time>2011-05-25T10:17:37Z</time>
      </trkpt>
      <trkpt lat="46.23346" lon="4.72612">
        <ele>258.29</ele>
        <time>2011-05-25T10:18:01Z</time>
      </trkpt>
      <trkpt lat="46.23363" lon="4.72617">
        <ele>258.373</ele>
        <time>2011-05-25T10:18:16Z</time>
      </trkpt>
      <trkpt lat="46.2337" lon="4.72618">
        <ele>258.611</ele>
        <time>2011-05-25T10:18:22Z</time>
      </trkpt>
      <trkpt lat="46.23396" lon="4.72628">
        <ele>258.93</ele>
        <time>2011-05-25T10:18:45Z</time>
      </trkpt>
      <trkpt lat="46.2342" lon="4.72636">
        <ele>259.909</ele>
        <time>2011-05-25T10:19:07Z</time>
      </trkpt>
      <trkpt lat="46.23445" lon="4.72642">
        <ele>260.399</ele>
        <time>2011-05-25T10:19:30Z</time>
      </trkpt>
      <trkpt lat="46.23446" lon="4.72643">
        <ele>260.833</ele>
        <time>2011-05-25T10:19:31Z</time>
      </trkpt>
      <trkpt lat="46.23472" lon="4.72639">
        <ele>261.219</ele>
        <time>2011-05-25T10:19:54Z</time>
      </trkpt>
      <trkpt lat="46.23504" lon="4.72631">
        <ele>262.32</ele>
        <time>2011-05-25T10:20:21Z</time>
      </trkpt>
      <trkpt lat="46.23532" lon="4.72622">
        <ele>262.24</ele>
        <time>2011-05-25T10:20:45Z</time>
      </trkpt>
      <trkpt lat="46.23555" lon="4.72617">
        <ele>262.934</ele>
        <time>2011-05-25T10:21:06Z</time>
      </trkpt>
      <trkpt lat="46.23582" lon="4.72608">
        <ele>263.226</ele>
        <time>2011-05-25T10:21:30Z</time>
      </trkpt>
      <trkpt lat="46.23594" lon="4.72606">
        <ele>263.578</ele>
        <time>2011-05-25T10:21:44Z</time>
      </trkpt>
      <trkpt lat="46.23624" lon="4.72594">
        <ele>264.322</ele>
        <time>2011-05-25T10:22:09Z</time>
      </trkpt>
      <trkpt lat="46.23647" lon="4.72585">
        <ele>264.039</ele>
        <time>2011-05-25T10:22:31Z</time>
      </trkpt>
      <trkpt lat="46.23676" lon="4.72574">
        <ele>264.031</ele>
        <time>2011-05-25T10:22:56Z</time>
      </trkpt>
      <trkpt lat="46.23705" lon="4.72563">
        <ele>264.708</ele>
        <time>2011-05-25T10:23:22Z</time>
      </trkpt>
      <trkpt lat="46.23731" lon="4.72553">
        <ele>264.774</ele>
        <time>2011-05-25T10:23:45Z</time>
      </trkpt>
      <trkpt lat="46.23757" lon="4.7254">
        <ele>265.195</ele>
        <time>2011-05-25T10:24:09Z</time>
      </trkpt>
      <trkpt lat="46.23786" lon="4.72525">
        <ele>265.346</ele>
        <time>2011-05-25T10:24:35Z</time>
      </trkpt>
      <trkpt lat="46.23804" lon="4.72505">
        <ele>265.41</ele>
        <time>2011-05-25T10:24:57Z</time>
      </trkpt>
      <trkpt lat="46.23805" lon="4.72502">
        <ele>265.132</ele>
        <time>2011-05-25T10:25:00Z</time>
      </trkpt>
      <trkpt lat="46.23808" lon="4.72467">
        <ele>266.471</ele>
        <time>2011-05-25T10:25:25Z</time>
      </trkpt>
      <trkpt lat="46.23815" lon="4.72448">
        <ele>267.075</ele>
        <time>2011-05-25T10:25:48Z</time>
      </trkpt>
      <trkpt lat="46.2382" lon="4.72438">
        <ele>267.604</ele>
        <time>2011-05-25T10:25:55Z</time>
      </trkpt>
      <trkpt lat="46.23826" lon="4.72421">
        <ele>268.542</ele>
        <time>2011-05-25T10:26:36Z</time>
      </trkpt>
      <trkpt lat="46.2383" lon="4.72405">
        <ele>269.152</ele>
        <time>2011-05-25T10:26:48Z</time>
      </trkpt>
      <trkpt lat="46.23836" lon="4.72397">
        <ele>269.538</ele>
        <time>2011-05-25T10:27:07Z</time>
      </trkpt>
      <trkpt lat="46.23841" lon="4.72389">
        <ele>270.096</ele>
        <time>2011-05-25T10:27:21Z</time>
      </trkpt>
      <trkpt lat="46.23855" lon="4.72371">
        <ele>271.403</ele>
        <time>2011-05-25T10:27:39Z</time>
      </trkpt>
      <trkpt lat="46.23873" lon="4.72355">
        <ele>273.541</ele>
        <time>2011-05-25T10:27:59Z</time>
      </trkpt>
      <trkpt lat="46.23894" lon="4.72343">
        <ele>274.331</ele>
        <time>2011-05-25T10:28:20Z</time>
      </trkpt>
      <trkpt lat="46.23916" lon="4.72326">
        <ele>276.381</ele>
        <time>2011-05-25T10:28:44Z</time>
      </trkpt>
      <trkpt lat="46.23937" lon="4.72312">
        <ele>277.914</ele>
        <time>2011-05-25T10:29:07Z</time>
      </trkpt>
      <trkpt lat="46.23961" lon="4.72297">
        <ele>279.755</ele>
        <time>2011-05-25T10:29:32Z</time>
      </trkpt>
      <trkpt lat="46.23969" lon="4.72293">
        <ele>280.421</ele>
        <time>2011-05-25T10:29:51Z</time>
      </trkpt>
      <trkpt lat="46.23986" lon="4.72279">
        <ele>282.307</ele>
        <time>2011-05-25T10:30:11Z</time>
      </trkpt>
      <trkpt lat="46.23999" lon="4.72268">
        <ele>283.632</ele>
        <time>2011-05-25T10:30:28Z</time>
      </trkpt>
      <trkpt lat="46.24015" lon="4.72257">
        <ele>286.587</ele>
        <time>2011-05-25T10:30:48Z</time>
      </trkpt>
      <trkpt lat="46.24036" lon="4.72242">
        <ele>289.191</ele>
        <time>2011-05-25T10:31:11Z</time>
      </trkpt>
      <trkpt lat="46.24058" lon="4.72225">
        <ele>291.859</ele>
        <time>2011-05-25T10:31:38Z</time>
      </trkpt>
      <trkpt lat="46.24072" lon="4.72216">
        <ele>293.729</ele>
        <time>2011-05-25T10:31:54Z</time>
      </trkpt>
      <trkpt lat="46.24071" lon="4.72209">
        <ele>294.429</ele>
        <time>2011-05-25T10:31:59Z</time>
      </trkpt>
      <trkpt lat="46.24061" lon="4.72184">
        <ele>295.507</ele>
        <time>2011-05-25T10:32:18Z</time>
      </trkpt>
      <trkpt lat="46.24052" lon="4.72157">
        <ele>296.567</ele>
        <time>2011-05-25T10:32:38Z</time>
      </trkpt>
      <trkpt lat="46.24042" lon="4.72118">
        <ele>298.078</ele>
        <time>2011-05-25T10:33:03Z</time>
      </trkpt>
      <trkpt lat="46.24039" lon="4.72108">
        <ele>298.312</ele>
        <time>2011-05-25T10:33:10Z</time>
      </trkpt>
      <trkpt lat="46.2404" lon="4.72103">
        <ele>298.446</ele>
        <time>2011-05-25T10:33:14Z</time>
      </trkpt>
      <trkpt lat="46.24036" lon="4.72081">
        <ele>298.92</ele>
        <time>2011-05-25T10:33:29Z</time>
      </trkpt>
      <trkpt lat="46.24037" lon="4.72076">
        <ele>298.884</ele>
        <time>2011-05-25T10:33:32Z</time>
      </trkpt>
      <trkpt lat="46.24044" lon="4.72073">
        <ele>299.449</ele>
        <time>2011-05-25T10:33:40Z</time>
      </trkpt>
      <trkpt lat="46.24061" lon="4.72083">
        <ele>300.895</ele>
        <time>2011-05-25T10:33:59Z</time>
      </trkpt>
      <trkpt lat="46.24077" lon="4.72098">
        <ele>302.333</ele>
        <time>2011-05-25T10:34:18Z</time>
      </trkpt>
      <trkpt lat="46.24093" lon="4.72114">
        <ele>303.112</ele>
        <time>2011-05-25T10:34:36Z</time>
      </trkpt>
      <trkpt lat="46.24107" lon="4.72121">
        <ele>303.907</ele>
        <time>2011-05-25T10:34:57Z</time>
      </trkpt>
      <trkpt lat="46.24108" lon="4.72121">
        <ele>303.943</ele>
        <time>2011-05-25T10:35:03Z</time>
      </trkpt>
      <trkpt lat="46.24118" lon="4.72095">
        <ele>305.981</ele>
        <time>2011-05-25T10:35:26Z</time>
      </trkpt>
      <trkpt lat="46.24118" lon="4.72095">
        <ele>305.959</ele>
        <time>2011-05-25T10:35:27Z</time>
      </trkpt>
      <trkpt lat="46.24136" lon="4.72095">
        <ele>307.768</ele>
        <time>2011-05-25T10:35:46Z</time>
      </trkpt>
      <trkpt lat="46.24156" lon="4.72096">
        <ele>310.001</ele>
        <time>2011-05-25T10:36:07Z</time>
      </trkpt>
      <trkpt lat="46.24162" lon="4.72096">
        <ele>310.662</ele>
        <time>2011-05-25T10:36:14Z</time>
      </trkpt>
      <trkpt lat="46.2418" lon="4.72084">
        <ele>312.932</ele>
        <time>2011-05-25T10:36:35Z</time>
      </trkpt>
      <trkpt lat="46.242" lon="4.72078">
        <ele>315.372</ele>
        <time>2011-05-25T10:36:58Z</time>
      </trkpt>
      <trkpt lat="46.24213" lon="4.72064">
        <ele>317.985</ele>
        <time>2011-05-25T10:37:19Z</time>
      </trkpt>
      <trkpt lat="46.24215" lon="4.72057">
        <ele>318.809</ele>
        <time>2011-05-25T10:37:25Z</time>
      </trkpt>
      <trkpt lat="46.2422" lon="4.72036">
        <ele>321.373</ele>
        <time>2011-05-25T10:37:44Z</time>
      </trkpt>
      <trkpt lat="46.24222" lon="4.72033">
        <ele>321.857</ele>
        <time>2011-05-25T10:37:48Z</time>
      </trkpt>
      <trkpt lat="46.2423" lon="4.72028">
        <ele>323.442</ele>
        <time>2011-05-25T10:37:57Z</time>
      </trkpt>
      <trkpt lat="46.24244" lon="4.72014">
        <ele>324.963</ele>
        <time>2011-05-25T10:38:17Z</time>
      </trkpt>
      <trkpt lat="46.24249" lon="4.72004">
        <ele>326.403</ele>
        <time>2011-05-25T10:38:27Z</time>
      </trkpt>
      <trkpt lat="46.24266" lon="4.71983">
        <ele>328.969</ele>
        <time>2011-05-25T10:38:53Z</time>
      </trkpt>
      <trkpt lat="46.24281" lon="4.71983">
        <ele>331.84</ele>
        <time>2011-05-25T10:39:14Z</time>
      </trkpt>
      <trkpt lat="46.24298" lon="4.71996">
        <ele>334.593</ele>
        <time>2011-05-25T10:39:38Z</time>
      </trkpt>
      <trkpt lat="46.243" lon="4.71998">
        <ele>335.381</ele>
        <time>2011-05-25T10:39:42Z</time>
      </trkpt>
      <trkpt lat="46.24316" lon="4.72012">
        <ele>338.385</ele>
        <time>2011-05-25T10:40:03Z</time>
      </trkpt>
      <trkpt lat="46.24328" lon="4.72022">
        <ele>339.909</ele>
        <time>2011-05-25T10:40:23Z</time>
      </trkpt>
      <trkpt lat="46.24337" lon="4.72029">
        <ele>341.691</ele>
        <time>2011-05-25T10:40:43Z</time>
      </trkpt>
      <trkpt lat="46.24347" lon="4.72038">
        <ele>343.047</ele>
        <time>2011-05-25T10:40:57Z</time>
      </trkpt>
      <trkpt lat="46.24365" lon="4.7205">
        <ele>344.937</ele>
        <time>2011-05-25T10:41:19Z</time>
      </trkpt>
      <trkpt lat="46.24387" lon="4.72067">
        <ele>346.767</ele>
        <time>2011-05-25T10:41:45Z</time>
      </trkpt>
      <trkpt lat="46.2439" lon="4.72069">
        <ele>346.939</ele>
        <time>2011-05-25T10:41:48Z</time>
      </trkpt>
      <trkpt lat="46.24401" lon="4.72074">
        <ele>347.559</ele>
        <time>2011-05-25T10:42:07Z</time>
      </trkpt>
      <trkpt lat="46.24427" lon="4.72075">
        <ele>348.617</ele>
        <time>2011-05-25T10:42:32Z</time>
      </trkpt>
      <trkpt lat="46.24448" lon="4.72068">
        <ele>349.968</ele>
        <time>2011-05-25T10:42:56Z</time>
      </trkpt>
      <trkpt lat="46.24469" lon="4.72053">
        <ele>351.987</ele>
        <time>2011-05-25T10:43:21Z</time>
      </trkpt>
      <trkpt lat="46.24492" lon="4.7204">
        <ele>353.3</ele>
        <time>2011-05-25T10:43:47Z</time>
      </trkpt>
      <trkpt lat="46.24507" lon="4.7203">
        <ele>353.927</ele>
        <time>2011-05-25T10:44:03Z</time>
      </trkpt>
      <trkpt lat="46.2453" lon="4.72007">
        <ele>352.948</ele>
        <time>2011-05-25T10:44:29Z</time>
      </trkpt>
      <trkpt lat="46.24523" lon="4.7199">
        <ele>354.833</ele>
        <time>2011-05-25T10:44:48Z</time>
      </trkpt>
      <trkpt lat="46.2452" lon="4.71986">
        <ele>355.475</ele>
        <time>2011-05-25T10:44:53Z</time>
      </trkpt>
      <trkpt lat="46.24507" lon="4.7197">
        <ele>357.66</ele>
        <time>2011-05-25T10:45:11Z</time>
      </trkpt>
      <trkpt lat="46.245" lon="4.7196">
        <ele>358.717</ele>
        <time>2011-05-25T10:45:24Z</time>
      </trkpt>
      <trkpt lat="46.2448" lon="4.71934">
        <ele>360.892</ele>
        <time>2011-05-25T10:45:52Z</time>
      </trkpt>
      <trkpt lat="46.24462" lon="4.71914">
        <ele>362.934</ele>
        <time>2011-05-25T10:46:15Z</time>
      </trkpt>
      <trkpt lat="46.24445" lon="4.7189">
        <ele>365.173</ele>
        <time>2011-05-25T10:46:39Z</time>
      </trkpt>
      <trkpt lat="46.24432" lon="4.71867">
        <ele>367.367</ele>
        <time>2011-05-25T10:47:03Z</time>
      </trkpt>
      <trkpt lat="46.24428" lon="4.7186">
        <ele>368.581</ele>
        <time>2011-05-25T10:47:34Z</time>
      </trkpt>
      <trkpt lat="46.24425" lon="4.71851">
        <ele>369.051</ele>
        <time>2011-05-25T10:47:58Z</time>
      </trkpt>
      <trkpt lat="46.24423" lon="4.71848">
        <ele>369.08</ele>
        <time>2011-05-25T10:48:04Z</time>
      </trkpt>
      <trkpt lat="46.24421" lon="4.71814">
        <ele>371.473</ele>
        <time>2011-05-25T10:48:26Z</time>
      </trkpt>
      <trkpt lat="46.24418" lon="4.71796">
        <ele>373.273</ele>
        <time>2011-05-25T10:48:39Z</time>
      </trkpt>
      <trkpt lat="46.24415" lon="4.71788">
        <ele>373.416</ele>
        <time>2011-05-25T10:49:01Z</time>
      </trkpt>
      <trkpt lat="46.24411" lon="4.71762">
        <ele>374.98</ele>
        <time>2011-05-25T10:49:19Z</time>
      </trkpt>
      <trkpt lat="46.24411" lon="4.71759">
        <ele>375.32</ele>
        <time>2011-05-25T10:49:21Z</time>
      </trkpt>
      <trkpt lat="46.24421" lon="4.71741">
        <ele>376.799</ele>
        <time>2011-05-25T10:49:40Z</time>
      </trkpt>
      <trkpt lat="46.24431" lon="4.71727">
        <ele>378.709</ele>
        <time>2011-05-25T10:49:59Z</time>
      </trkpt>
      <trkpt lat="46.24439" lon="4.71712">
        <ele>380.567</ele>
        <time>2011-05-25T10:50:16Z</time>
      </trkpt>
      <trkpt lat="46.24454" lon="4.71687">
        <ele>383.302</ele>
        <time>2011-05-25T10:50:38Z</time>
      </trkpt>
      <trkpt lat="46.24466" lon="4.71666">
        <ele>385.253</ele>
        <time>2011-05-25T10:50:57Z</time>
      </trkpt>
      <trkpt lat="46.24481" lon="4.71642">
        <ele>387.284</ele>
        <time>2011-05-25T10:51:19Z</time>
      </trkpt>
      <trkpt lat="46.24484" lon="4.71638">
        <ele>387.696</ele>
        <time>2011-05-25T10:51:48Z</time>
      </trkpt>
      <trkpt lat="46.24489" lon="4.71632">
        <ele>388.771</ele>
        <time>2011-05-25T10:51:54Z</time>
      </trkpt>
      <trkpt lat="46.24504" lon="4.71606">
        <ele>391.668</ele>
        <time>2011-05-25T10:52:19Z</time>
      </trkpt>
      <trkpt lat="46.24519" lon="4.71586">
        <ele>393.87</ele>
        <time>2011-05-25T10:52:42Z</time>
      </trkpt>
      <trkpt lat="46.24532" lon="4.71562">
        <ele>396.251</ele>
        <time>2011-05-25T10:53:05Z</time>
      </trkpt>
      <trkpt lat="46.24541" lon="4.71538">
        <ele>399.292</ele>
        <time>2011-05-25T10:53:27Z</time>
      </trkpt>
      <trkpt lat="46.24546" lon="4.71527">
        <ele>400.579</ele>
        <time>2011-05-25T10:54:14Z</time>
      </trkpt>
      <trkpt lat="46.24551" lon="4.71514">
        <ele>401.568</ele>
        <time>2011-05-25T10:54:25Z</time>
      </trkpt>
      <trkpt lat="46.24563" lon="4.71495">
        <ele>405.431</ele>
        <time>2011-05-25T10:54:45Z</time>
      </trkpt>
      <trkpt lat="46.2458" lon="4.71468">
        <ele>408.784</ele>
        <time>2011-05-25T10:55:14Z</time>
      </trkpt>
      <trkpt lat="46.24595" lon="4.71446">
        <ele>410.929</ele>
        <time>2011-05-25T10:55:37Z</time>
      </trkpt>
      <trkpt lat="46.24609" lon="4.71428">
        <ele>414.098</ele>
        <time>2011-05-25T10:56:01Z</time>
      </trkpt>
      <trkpt lat="46.24617" lon="4.71418">
        <ele>415.384</ele>
        <time>2011-05-25T10:56:22Z</time>
      </trkpt>
      <trkpt lat="46.24629" lon="4.71405">
        <ele>417.793</ele>
        <time>2011-05-25T10:56:41Z</time>
      </trkpt>
      <trkpt lat="46.24642" lon="4.71387">
        <ele>420.825</ele>
        <time>2011-05-25T10:57:02Z</time>
      </trkpt>
      <trkpt lat="46.24655" lon="4.71371">
        <ele>424.072</ele>
        <time>2011-05-25T10:57:25Z</time>
      </trkpt>
      <trkpt lat="46.24667" lon="4.71353">
        <ele>427.266</ele>
        <time>2011-05-25T10:57:46Z</time>
      </trkpt>
      <trkpt lat="46.24679" lon="4.71345">
        <ele>428.855</ele>
        <time>2011-05-25T10:58:05Z</time>
      </trkpt>
      <trkpt lat="46.24688" lon="4.71346">
        <ele>430.724</ele>
        <time>2011-05-25T10:58:18Z</time>
      </trkpt>
      <trkpt lat="46.24693" lon="4.71345">
        <ele>430.439</ele>
        <time>2011-05-25T10:58:54Z</time>
      </trkpt>
      <trkpt lat="46.24707" lon="4.71337">
        <ele>431.784</ele>
        <time>2011-05-25T10:59:09Z</time>
      </trkpt>
      <trkpt lat="46.24711" lon="4.71321">
        <ele>433.421</ele>
        <time>2011-05-25T10:59:22Z</time>
      </trkpt>
      <trkpt lat="46.24708" lon="4.71302">
        <ele>434.534</ele>
        <time>2011-05-25T10:59:36Z</time>
      </trkpt>
      <trkpt lat="46.24704" lon="4.71283">
        <ele>436.934</ele>
        <time>2011-05-25T10:59:52Z</time>
      </trkpt>
      <trkpt lat="46.24694" lon="4.71262">
        <ele>437.865</ele>
        <time>2011-05-25T11:00:11Z</time>
      </trkpt>
      <trkpt lat="46.24694" lon="4.71258">
        <ele>438.028</ele>
        <time>2011-05-25T11:00:14Z</time>
      </trkpt>
      <trkpt lat="46.24694" lon="4.71242">
        <ele>438.134</ele>
        <time>2011-05-25T11:00:34Z</time>
      </trkpt>
      <trkpt lat="46.24699" lon="4.71241">
        <ele>438.338</ele>
        <time>2011-05-25T11:01:20Z</time>
      </trkpt>
      <trkpt lat="46.24712" lon="4.71242">
        <ele>441.168</ele>
        <time>2011-05-25T11:01:38Z</time>
      </trkpt>
      <trkpt lat="46.24729" lon="4.71242">
        <ele>443.322</ele>
        <time>2011-05-25T11:01:56Z</time>
      </trkpt>
      <trkpt lat="46.24734" lon="4.7124">
        <ele>444.034</ele>
        <time>2011-05-25T11:02:07Z</time>
      </trkpt>
      <trkpt lat="46.24741" lon="4.71232">
        <ele>444.762</ele>
        <time>2011-05-25T11:02:17Z</time>
      </trkpt>
      <trkpt lat="46.24742" lon="4.71229">
        <ele>444.687</ele>
        <time>2011-05-25T11:02:19Z</time>
      </trkpt>
      <trkpt lat="46.24751" lon="4.71215">
        <ele>446.107</ele>
        <time>2011-05-25T11:02:36Z</time>
      </trkpt>
      <trkpt lat="46.24761" lon="4.712">
        <ele>448.742</ele>
        <time>2011-05-25T11:02:51Z</time>
      </trkpt>
      <trkpt lat="46.24766" lon="4.71186">
        <ele>449.963</ele>
        <time>2011-05-25T11:03:03Z</time>
      </trkpt>
      <trkpt lat="46.24774" lon="4.71157">
        <ele>452.761</ele>
        <time>2011-05-25T11:03:27Z</time>
      </trkpt>
      <trkpt lat="46.2478" lon="4.7114">
        <ele>454.695</ele>
        <time>2011-05-25T11:03:43Z</time>
      </trkpt>
      <trkpt lat="46.24785" lon="4.71128">
        <ele>455.754</ele>
        <time>2011-05-25T11:03:59Z</time>
      </trkpt>
      <trkpt lat="46.24786" lon="4.71122">
        <ele>455.758</ele>
        <time>2011-05-25T11:04:04Z</time>
      </trkpt>
      <trkpt lat="46.24789" lon="4.71088">
        <ele>457.682</ele>
        <time>2011-05-25T11:04:27Z</time>
      </trkpt>
      <trkpt lat="46.24789" lon="4.71055">
        <ele>459.355</ele>
        <time>2011-05-25T11:04:50Z</time>
      </trkpt>
      <trkpt lat="46.24789" lon="4.71046">
        <ele>459.389</ele>
        <time>2011-05-25T11:04:56Z</time>
      </trkpt>
      <trkpt lat="46.24791" lon="4.71019">
        <ele>461.418</ele>
        <time>2011-05-25T11:05:17Z</time>
      </trkpt>
      <trkpt lat="46.24795" lon="4.71009">
        <ele>462.378</ele>
        <time>2011-05-25T11:05:34Z</time>
      </trkpt>
      <trkpt lat="46.24795" lon="4.70997">
        <ele>463.014</ele>
        <time>2011-05-25T11:05:49Z</time>
      </trkpt>
      <trkpt lat="46.24801" lon="4.70986">
        <ele>464.207</ele>
        <time>2011-05-25T11:05:59Z</time>
      </trkpt>
      <trkpt lat="46.24808" lon="4.70972">
        <ele>465.754</ele>
        <time>2011-05-25T11:06:16Z</time>
      </trkpt>
      <trkpt lat="46.2481" lon="4.70972">
        <ele>465.444</ele>
        <time>2011-05-25T11:06:18Z</time>
      </trkpt>
      <trkpt lat="46.24812" lon="4.70969">
        <ele>466.197</ele>
        <time>2011-05-25T11:06:21Z</time>
      </trkpt>
      <trkpt lat="46.24815" lon="4.70964">
        <ele>466.712</ele>
        <time>2011-05-25T11:06:26Z</time>
      </trkpt>
      <trkpt lat="46.24832" lon="4.7095">
        <ele>468.43</ele>
        <time>2011-05-25T11:06:46Z</time>
      </trkpt>
      <trkpt lat="46.24838" lon="4.70947">
        <ele>469.16</ele>
        <time>2011-05-25T11:07:03Z</time>
      </trkpt>
      <trkpt lat="46.24838" lon="4.70946">
        <ele>468.887</ele>
        <time>2011-05-25T11:07:05Z</time>
      </trkpt>
      <trkpt lat="46.24853" lon="4.70927">
        <ele>469.97</ele>
        <time>2011-05-25T11:07:30Z</time>
      </trkpt>
      <trkpt lat="46.24862" lon="4.70911">
        <ele>471.244</ele>
        <time>2011-05-25T11:07:53Z</time>
      </trkpt>
      <trkpt lat="46.24874" lon="4.70888">
        <ele>471.442</ele>
        <time>2011-05-25T11:08:14Z</time>
      </trkpt>
      <trkpt lat="46.24886" lon="4.70869">
        <ele>472.716</ele>
        <time>2011-05-25T11:08:34Z</time>
      </trkpt>
      <trkpt lat="46.24889" lon="4.70862">
        <ele>472.208</ele>
        <time>2011-05-25T11:08:39Z</time>
      </trkpt>
      <trkpt lat="46.24893" lon="4.70858">
        <ele>472.201</ele>
        <time>2011-05-25T11:08:44Z</time>
      </trkpt>
      <trkpt lat="46.2491" lon="4.70832">
        <ele>473.352</ele>
        <time>2011-05-25T11:09:09Z</time>
      </trkpt>
      <trkpt lat="46.24915" lon="4.70822">
        <ele>473.157</ele>
        <time>2011-05-25T11:09:21Z</time>
      </trkpt>
      <trkpt lat="46.24923" lon="4.70815">
        <ele>472.758</ele>
        <time>2011-05-25T11:09:37Z</time>
      </trkpt>
      <trkpt lat="46.2493" lon="4.70808">
        <ele>472.52</ele>
        <time>2011-05-25T11:09:53Z</time>
      </trkpt>
      <trkpt lat="46.2493" lon="4.70807">
        <ele>472.668</ele>
        <time>2011-05-25T11:10:00Z</time>
      </trkpt>
      <trkpt lat="46.2494" lon="4.7079">
        <ele>471.944</ele>
        <time>2011-05-25T11:10:19Z</time>
      </trkpt>
      <trkpt lat="46.24945" lon="4.70778">
        <ele>471.235</ele>
        <time>2011-05-25T11:10:33Z</time>
      </trkpt>
      <trkpt lat="46.2496" lon="4.70751">
        <ele>467.78</ele>
        <time>2011-05-25T11:10:53Z</time>
      </trkpt>
      <trkpt lat="46.24973" lon="4.70723">
        <ele>465.443</ele>
        <time>2011-05-25T11:11:14Z</time>
      </trkpt>
      <trkpt lat="46.24995" lon="4.70687">
        <ele>463.318</ele>
        <time>2011-05-25T11:11:42Z</time>
      </trkpt>
      <trkpt lat="46.25021" lon="4.70656">
        <ele>461.799</ele>
        <time>2011-05-25T11:12:11Z</time>
      </trkpt>
      <trkpt lat="46.25022" lon="4.70654">
        <ele>461.611</ele>
        <time>2011-05-25T11:12:13Z</time>
      </trkpt>
      <trkpt lat="46.25024" lon="4.70646">
        <ele>469.198</ele>
        <time>2011-05-25T11:58:11Z</time>
      </trkpt>
      <trkpt lat="46.25036" lon="4.70639">
        <ele>468.121</ele>
        <time>2011-05-25T11:58:26Z</time>
      </trkpt>
      <trkpt lat="46.25038" lon="4.70636">
        <ele>467.198</ele>
        <time>2011-05-25T11:58:46Z</time>
      </trkpt>
      <trkpt lat="46.25038" lon="4.70633">
        <ele>467.584</ele>
        <time>2011-05-25T11:58:58Z</time>
      </trkpt>
      <trkpt lat="46.25043" lon="4.70624">
        <ele>467.493</ele>
        <time>2011-05-25T11:59:06Z</time>
      </trkpt>
      <trkpt lat="46.25046" lon="4.7062">
        <ele>467.714</ele>
        <time>2011-05-25T11:59:09Z</time>
      </trkpt>
      <trkpt lat="46.25049" lon="4.70613">
        <ele>466.899</ele>
        <time>2011-05-25T11:59:15Z</time>
      </trkpt>
      <trkpt lat="46.25062" lon="4.70599">
        <ele>466.488</ele>
        <time>2011-05-25T11:59:32Z</time>
      </trkpt>
      <trkpt lat="46.25065" lon="4.70596">
        <ele>466.076</ele>
        <time>2011-05-25T11:59:35Z</time>
      </trkpt>
      <trkpt lat="46.25079" lon="4.70573">
        <ele>465.163</ele>
        <time>2011-05-25T11:59:55Z</time>
      </trkpt>
      <trkpt lat="46.25097" lon="4.70547">
        <ele>463.421</ele>
        <time>2011-05-25T12:00:19Z</time>
      </trkpt>
      <trkpt lat="46.25119" lon="4.70513">
        <ele>461.67</ele>
        <time>2011-05-25T12:00:47Z</time>
      </trkpt>
      <trkpt lat="46.25137" lon="4.70486">
        <ele>460.599</ele>
        <time>2011-05-25T12:01:10Z</time>
      </trkpt>
      <trkpt lat="46.25158" lon="4.70457">
        <ele>460.335</ele>
        <time>2011-05-25T12:01:36Z</time>
      </trkpt>
      <trkpt lat="46.25181" lon="4.7043">
        <ele>460.478</ele>
        <time>2011-05-25T12:02:01Z</time>
      </trkpt>
      <trkpt lat="46.25188" lon="4.70421">
        <ele>460.38</ele>
        <time>2011-05-25T12:02:09Z</time>
      </trkpt>
      <trkpt lat="46.2521" lon="4.70392">
        <ele>461.241</ele>
        <time>2011-05-25T12:02:35Z</time>
      </trkpt>
      <trkpt lat="46.25227" lon="4.70359">
        <ele>459.427</ele>
        <time>2011-05-25T12:02:59Z</time>
      </trkpt>
      <trkpt lat="46.25241" lon="4.70327">
        <ele>458.303</ele>
        <time>2011-05-25T12:03:21Z</time>
      </trkpt>
      <trkpt lat="46.25263" lon="4.70286">
        <ele>456.831</ele>
        <time>2011-05-25T12:03:51Z</time>
      </trkpt>
      <trkpt lat="46.25278" lon="4.70253">
        <ele>456.646</ele>
        <time>2011-05-25T12:04:15Z</time>
      </trkpt>
      <trkpt lat="46.25292" lon="4.70218">
        <ele>457.065</ele>
        <time>2011-05-25T12:04:39Z</time>
      </trkpt>
      <trkpt lat="46.253" lon="4.70201">
        <ele>457.892</ele>
        <time>2011-05-25T12:05:00Z</time>
      </trkpt>
      <trkpt lat="46.253" lon="4.70199">
        <ele>457.732</ele>
        <time>2011-05-25T12:05:02Z</time>
      </trkpt>
      <trkpt lat="46.25301" lon="4.70195">
        <ele>458.479</ele>
        <time>2011-05-25T12:05:46Z</time>
      </trkpt>
      <trkpt lat="46.25287" lon="4.70204">
        <ele>457.551</ele>
        <time>2011-05-25T12:06:04Z</time>
      </trkpt>
      <trkpt lat="46.25262" lon="4.70208">
        <ele>456.055</ele>
        <time>2011-05-25T12:06:26Z</time>
      </trkpt>
      <trkpt lat="46.25233" lon="4.70217">
        <ele>453.259</ele>
        <time>2011-05-25T12:06:51Z</time>
      </trkpt>
      <trkpt lat="46.2521" lon="4.70223">
        <ele>450.193</ele>
        <time>2011-05-25T12:07:10Z</time>
      </trkpt>
      <trkpt lat="46.25185" lon="4.70235">
        <ele>448.037</ele>
        <time>2011-05-25T12:07:32Z</time>
      </trkpt>
      <trkpt lat="46.25152" lon="4.7025">
        <ele>445.654</ele>
        <time>2011-05-25T12:08:00Z</time>
      </trkpt>
      <trkpt lat="46.25124" lon="4.70262">
        <ele>442.219</ele>
        <time>2011-05-25T12:08:26Z</time>
      </trkpt>
      <trkpt lat="46.25096" lon="4.70272">
        <ele>439.411</ele>
        <time>2011-05-25T12:08:49Z</time>
      </trkpt>
      <trkpt lat="46.25074" lon="4.70282">
        <ele>436.786</ele>
        <time>2011-05-25T12:09:10Z</time>
      </trkpt>
      <trkpt lat="46.25053" lon="4.70292">
        <ele>435.056</ele>
        <time>2011-05-25T12:09:29Z</time>
      </trkpt>
      <trkpt lat="46.25024" lon="4.70316">
        <ele>433.354</ele>
        <time>2011-05-25T12:09:57Z</time>
      </trkpt>
      <trkpt lat="46.25003" lon="4.70329">
        <ele>432.146</ele>
        <time>2011-05-25T12:10:19Z</time>
      </trkpt>
      <trkpt lat="46.24998" lon="4.70318">
        <ele>430.162</ele>
        <time>2011-05-25T12:10:33Z</time>
      </trkpt>
      <trkpt lat="46.25" lon="4.70313">
        <ele>429.698</ele>
        <time>2011-05-25T12:10:45Z</time>
      </trkpt>
      <trkpt lat="46.25005" lon="4.70296">
        <ele>427.644</ele>
        <time>2011-05-25T12:10:56Z</time>
      </trkpt>
      <trkpt lat="46.25006" lon="4.70291">
        <ele>427.417</ele>
        <time>2011-05-25T12:10:59Z</time>
      </trkpt>
      <trkpt lat="46.2502" lon="4.7026">
        <ele>425.808</ele>
        <time>2011-05-25T12:11:23Z</time>
      </trkpt>
      <trkpt lat="46.25034" lon="4.70232">
        <ele>424.093</ele>
        <time>2011-05-25T12:11:45Z</time>
      </trkpt>
      <trkpt lat="46.25047" lon="4.70193">
        <ele>422.578</ele>
        <time>2011-05-25T12:12:13Z</time>
      </trkpt>
      <trkpt lat="46.25054" lon="4.70163">
        <ele>420.846</ele>
        <time>2011-05-25T12:12:32Z</time>
      </trkpt>
      <trkpt lat="46.2506" lon="4.70121">
        <ele>419.315</ele>
        <time>2011-05-25T12:12:59Z</time>
      </trkpt>
      <trkpt lat="46.25062" lon="4.70075">
        <ele>417.878</ele>
        <time>2011-05-25T12:13:26Z</time>
      </trkpt>
      <trkpt lat="46.25062" lon="4.7007">
        <ele>417.975</ele>
        <time>2011-05-25T12:13:29Z</time>
      </trkpt>
      <trkpt lat="46.25067" lon="4.70049">
        <ele>418.82</ele>
        <time>2011-05-25T12:13:43Z</time>
      </trkpt>
      <trkpt lat="46.25073" lon="4.7001">
        <ele>419.317</ele>
        <time>2011-05-25T12:14:08Z</time>
      </trkpt>
      <trkpt lat="46.25076" lon="4.69983">
        <ele>419.005</ele>
        <time>2011-05-25T12:14:26Z</time>
      </trkpt>
      <trkpt lat="46.25087" lon="4.69953">
        <ele>417.591</ele>
        <time>2011-05-25T12:14:46Z</time>
      </trkpt>
      <trkpt lat="46.25107" lon="4.69924">
        <ele>416.521</ele>
        <time>2011-05-25T12:15:11Z</time>
      </trkpt>
      <trkpt lat="46.25123" lon="4.69905">
        <ele>416.415</ele>
        <time>2011-05-25T12:15:30Z</time>
      </trkpt>
      <trkpt lat="46.25128" lon="4.69899">
        <ele>416.116</ele>
        <time>2011-05-25T12:15:37Z</time>
      </trkpt>
      <trkpt lat="46.25131" lon="4.69892">
        <ele>416.637</ele>
        <time>2011-05-25T12:15:43Z</time>
      </trkpt>
      <trkpt lat="46.2515" lon="4.69863">
        <ele>417.158</ele>
        <time>2011-05-25T12:16:09Z</time>
      </trkpt>
      <trkpt lat="46.25164" lon="4.69832">
        <ele>418.24</ele>
        <time>2011-05-25T12:16:32Z</time>
      </trkpt>
      <trkpt lat="46.25173" lon="4.69801">
        <ele>419.509</ele>
        <time>2011-05-25T12:16:54Z</time>
      </trkpt>
      <trkpt lat="46.25183" lon="4.6977">
        <ele>420.538</ele>
        <time>2011-05-25T12:17:19Z</time>
      </trkpt>
      <trkpt lat="46.25194" lon="4.69745">
        <ele>422.292</ele>
        <time>2011-05-25T12:17:38Z</time>
      </trkpt>
      <trkpt lat="46.25213" lon="4.69704">
        <ele>422.581</ele>
        <time>2011-05-25T12:18:09Z</time>
      </trkpt>
      <trkpt lat="46.25226" lon="4.69679">
        <ele>422.079</ele>
        <time>2011-05-25T12:18:30Z</time>
      </trkpt>
      <trkpt lat="46.25246" lon="4.69643">
        <ele>420.464</ele>
        <time>2011-05-25T12:18:58Z</time>
      </trkpt>
      <trkpt lat="46.2526" lon="4.69624">
        <ele>419.822</ele>
        <time>2011-05-25T12:19:16Z</time>
      </trkpt>
      <trkpt lat="46.25267" lon="4.69614">
        <ele>420.242</ele>
        <time>2011-05-25T12:20:30Z</time>
      </trkpt>
      <trkpt lat="46.25294" lon="4.69591">
        <ele>419.212</ele>
        <time>2011-05-25T12:20:56Z</time>
      </trkpt>
      <trkpt lat="46.25305" lon="4.69584">
        <ele>419.548</ele>
        <time>2011-05-25T12:21:15Z</time>
      </trkpt>
      <trkpt lat="46.25313" lon="4.69581">
        <ele>419.976</ele>
        <time>2011-05-25T12:21:31Z</time>
      </trkpt>
      <trkpt lat="46.25327" lon="4.69578">
        <ele>420.35</ele>
        <time>2011-05-25T12:21:48Z</time>
      </trkpt>
      <trkpt lat="46.25354" lon="4.69571">
        <ele>420.207</ele>
        <time>2011-05-25T12:22:10Z</time>
      </trkpt>
      <trkpt lat="46.25386" lon="4.6956">
        <ele>420.41</ele>
        <time>2011-05-25T12:22:39Z</time>
      </trkpt>
      <trkpt lat="46.25418" lon="4.69548">
        <ele>419.275</ele>
        <time>2011-05-25T12:23:07Z</time>
      </trkpt>
      <trkpt lat="46.25449" lon="4.69539">
        <ele>420.186</ele>
        <time>2011-05-25T12:23:35Z</time>
      </trkpt>
      <trkpt lat="46.25474" lon="4.69532">
        <ele>420.461</ele>
        <time>2011-05-25T12:23:57Z</time>
      </trkpt>
      <trkpt lat="46.25496" lon="4.69526">
        <ele>420.701</ele>
        <time>2011-05-25T12:24:17Z</time>
      </trkpt>
      <trkpt lat="46.25522" lon="4.69513">
        <ele>420.603</ele>
        <time>2011-05-25T12:24:41Z</time>
      </trkpt>
      <trkpt lat="46.25542" lon="4.69501">
        <ele>419.662</ele>
        <time>2011-05-25T12:25:01Z</time>
      </trkpt>
      <trkpt lat="46.25565" lon="4.6949">
        <ele>419.015</ele>
        <time>2011-05-25T12:25:22Z</time>
      </trkpt>
      <trkpt lat="46.25571" lon="4.69486">
        <ele>418.134</ele>
        <time>2011-05-25T12:25:28Z</time>
      </trkpt>
      <trkpt lat="46.25576" lon="4.69462">
        <ele>414.667</ele>
        <time>2011-05-25T12:25:44Z</time>
      </trkpt>
      <trkpt lat="46.25579" lon="4.69443">
        <ele>411.422</ele>
        <time>2011-05-25T12:25:57Z</time>
      </trkpt>
      <trkpt lat="46.25579" lon="4.69441">
        <ele>411.42</ele>
        <time>2011-05-25T12:25:58Z</time>
      </trkpt>
      <trkpt lat="46.25574" lon="4.6941">
        <ele>408.226</ele>
        <time>2011-05-25T12:26:18Z</time>
      </trkpt>
      <trkpt lat="46.25571" lon="4.69399">
        <ele>407.157</ele>
        <time>2011-05-25T12:26:32Z</time>
      </trkpt>
      <trkpt lat="46.25566" lon="4.6939">
        <ele>406.07</ele>
        <time>2011-05-25T12:27:00Z</time>
      </trkpt>
      <trkpt lat="46.25553" lon="4.69354">
        <ele>404.66</ele>
        <time>2011-05-25T12:27:24Z</time>
      </trkpt>
      <trkpt lat="46.25546" lon="4.69319">
        <ele>405.464</ele>
        <time>2011-05-25T12:27:47Z</time>
      </trkpt>
      <trkpt lat="46.25546" lon="4.69318">
        <ele>405.933</ele>
        <time>2011-05-25T12:27:48Z</time>
      </trkpt>
      <trkpt lat="46.25542" lon="4.69308">
        <ele>406.539</ele>
        <time>2011-05-25T12:27:57Z</time>
      </trkpt>
      <trkpt lat="46.25534" lon="4.69285">
        <ele>407.611</ele>
        <time>2011-05-25T12:28:15Z</time>
      </trkpt>
      <trkpt lat="46.2552" lon="4.69267">
        <ele>408.877</ele>
        <time>2011-05-25T12:28:34Z</time>
      </trkpt>
      <trkpt lat="46.25519" lon="4.69252">
        <ele>409.336</ele>
        <time>2011-05-25T12:28:47Z</time>
      </trkpt>
      <trkpt lat="46.25522" lon="4.6921">
        <ele>411.671</ele>
        <time>2011-05-25T12:29:14Z</time>
      </trkpt>
      <trkpt lat="46.25521" lon="4.69194">
        <ele>411.635</ele>
        <time>2011-05-25T12:29:26Z</time>
      </trkpt>
      <trkpt lat="46.25515" lon="4.69192">
        <ele>411.878</ele>
        <time>2011-05-25T12:29:31Z</time>
      </trkpt>
      <trkpt lat="46.25488" lon="4.69205">
        <ele>410.371</ele>
        <time>2011-05-25T12:29:57Z</time>
      </trkpt>
      <trkpt lat="46.25484" lon="4.6921">
        <ele>409.908</ele>
        <time>2011-05-25T12:30:09Z</time>
      </trkpt>
      <trkpt lat="46.25483" lon="4.6921">
        <ele>409.792</ele>
        <time>2011-05-25T12:30:10Z</time>
      </trkpt>
      <trkpt lat="46.25462" lon="4.69213">
        <ele>408.685</ele>
        <time>2011-05-25T12:30:29Z</time>
      </trkpt>
      <trkpt lat="46.25434" lon="4.69204">
        <ele>406.091</ele>
        <time>2011-05-25T12:30:55Z</time>
      </trkpt>
      <trkpt lat="46.25423" lon="4.6919">
        <ele>404.84</ele>
        <time>2011-05-25T12:31:46Z</time>
      </trkpt>
      <trkpt lat="46.25428" lon="4.69154">
        <ele>403.454</ele>
        <time>2011-05-25T12:32:12Z</time>
      </trkpt>
      <trkpt lat="46.25443" lon="4.69123">
        <ele>401.336</ele>
        <time>2011-05-25T12:32:36Z</time>
      </trkpt>
      <trkpt lat="46.25459" lon="4.6908">
        <ele>398.04</ele>
        <time>2011-05-25T12:33:07Z</time>
      </trkpt>
      <trkpt lat="46.2546" lon="4.69067">
        <ele>397.697</ele>
        <time>2011-05-25T12:33:25Z</time>
      </trkpt>
      <trkpt lat="46.25477" lon="4.69037">
        <ele>398.88</ele>
        <time>2011-05-25T12:33:47Z</time>
      </trkpt>
      <trkpt lat="46.25486" lon="4.69018">
        <ele>399.555</ele>
        <time>2011-05-25T12:34:02Z</time>
      </trkpt>
      <trkpt lat="46.25501" lon="4.68987">
        <ele>402.396</ele>
        <time>2011-05-25T12:34:27Z</time>
      </trkpt>
      <trkpt lat="46.25507" lon="4.68961">
        <ele>402.303</ele>
        <time>2011-05-25T12:35:22Z</time>
      </trkpt>
      <trkpt lat="46.2551" lon="4.68956">
        <ele>402.77</ele>
        <time>2011-05-25T12:35:26Z</time>
      </trkpt>
      <trkpt lat="46.25517" lon="4.68945">
        <ele>403.215</ele>
        <time>2011-05-25T12:36:06Z</time>
      </trkpt>
      <trkpt lat="46.25517" lon="4.68945">
        <ele>402.622</ele>
        <time>2011-05-25T12:36:14Z</time>
      </trkpt>
      <trkpt lat="46.25504" lon="4.68928">
        <ele>402.202</ele>
        <time>2011-05-25T12:36:33Z</time>
      </trkpt>
      <trkpt lat="46.25496" lon="4.68921">
        <ele>401.957</ele>
        <time>2011-05-25T12:36:49Z</time>
      </trkpt>
      <trkpt lat="46.25474" lon="4.68905">
        <ele>402.833</ele>
        <time>2011-05-25T12:37:13Z</time>
      </trkpt>
      <trkpt lat="46.25453" lon="4.6889">
        <ele>405.24</ele>
        <time>2011-05-25T12:37:35Z</time>
      </trkpt>
      <trkpt lat="46.25438" lon="4.68878">
        <ele>406.167</ele>
        <time>2011-05-25T12:37:57Z</time>
      </trkpt>
      <trkpt lat="46.2543" lon="4.68865">
        <ele>407.473</ele>
        <time>2011-05-25T12:38:08Z</time>
      </trkpt>
      <trkpt lat="46.25431" lon="4.68849">
        <ele>408.973</ele>
        <time>2011-05-25T12:38:24Z</time>
      </trkpt>
      <trkpt lat="46.25437" lon="4.68826">
        <ele>412.313</ele>
        <time>2011-05-25T12:38:44Z</time>
      </trkpt>
      <trkpt lat="46.25447" lon="4.68802">
        <ele>415.272</ele>
        <time>2011-05-25T12:39:05Z</time>
      </trkpt>
      <trkpt lat="46.25454" lon="4.68782">
        <ele>417.61</ele>
        <time>2011-05-25T12:39:28Z</time>
      </trkpt>
      <trkpt lat="46.25461" lon="4.68765">
        <ele>419.175</ele>
        <time>2011-05-25T12:39:47Z</time>
      </trkpt>
      <trkpt lat="46.2547" lon="4.68752">
        <ele>419.822</ele>
        <time>2011-05-25T12:40:02Z</time>
      </trkpt>
      <trkpt lat="46.25478" lon="4.68729">
        <ele>420.771</ele>
        <time>2011-05-25T12:40:21Z</time>
      </trkpt>
      <trkpt lat="46.25478" lon="4.68726">
        <ele>421.321</ele>
        <time>2011-05-25T12:40:23Z</time>
      </trkpt>
      <trkpt lat="46.25488" lon="4.68704">
        <ele>422.51</ele>
        <time>2011-05-25T12:40:45Z</time>
      </trkpt>
      <trkpt lat="46.25496" lon="4.6868">
        <ele>424.531</ele>
        <time>2011-05-25T12:41:05Z</time>
      </trkpt>
      <trkpt lat="46.25498" lon="4.68656">
        <ele>425.927</ele>
        <time>2011-05-25T12:41:22Z</time>
      </trkpt>
      <trkpt lat="46.25498" lon="4.68645">
        <ele>426.802</ele>
        <time>2011-05-25T12:41:38Z</time>
      </trkpt>
      <trkpt lat="46.25501" lon="4.68628">
        <ele>428.464</ele>
        <time>2011-05-25T12:42:01Z</time>
      </trkpt>
      <trkpt lat="46.25516" lon="4.68596">
        <ele>429.311</ele>
        <time>2011-05-25T12:42:26Z</time>
      </trkpt>
      <trkpt lat="46.25525" lon="4.68573">
        <ele>430.133</ele>
        <time>2011-05-25T12:42:47Z</time>
      </trkpt>
      <trkpt lat="46.25527" lon="4.6857">
        <ele>430.588</ele>
        <time>2011-05-25T12:43:06Z</time>
      </trkpt>
      <trkpt lat="46.25526" lon="4.6857">
        <ele>430.577</ele>
        <time>2011-05-25T12:43:38Z</time>
      </trkpt>
      <trkpt lat="46.25528" lon="4.68567">
        <ele>430.724</ele>
        <time>2011-05-25T12:44:14Z</time>
      </trkpt>
      <trkpt lat="46.25529" lon="4.68567">
        <ele>430.797</ele>
        <time>2011-05-25T12:44:34Z</time>
      </trkpt>
      <trkpt lat="46.25531" lon="4.68564">
        <ele>430.363</ele>
        <time>2011-05-25T12:44:57Z</time>
      </trkpt>
      <trkpt lat="46.25544" lon="4.68543">
        <ele>431.452</ele>
        <time>2011-05-25T12:45:15Z</time>
      </trkpt>
      <trkpt lat="46.25555" lon="4.68523">
        <ele>432.063</ele>
        <time>2011-05-25T12:45:32Z</time>
      </trkpt>
      <trkpt lat="46.25564" lon="4.68505">
        <ele>432.488</ele>
        <time>2011-05-25T12:45:46Z</time>
      </trkpt>
      <trkpt lat="46.25577" lon="4.68482">
        <ele>433.427</ele>
        <time>2011-05-25T12:46:05Z</time>
      </trkpt>
      <trkpt lat="46.25594" lon="4.6846">
        <ele>433.846</ele>
        <time>2011-05-25T12:46:25Z</time>
      </trkpt>
      <trkpt lat="46.25613" lon="4.68441">
        <ele>434.938</ele>
        <time>2011-05-25T12:46:47Z</time>
      </trkpt>
      <trkpt lat="46.25636" lon="4.68426">
        <ele>436.066</ele>
        <time>2011-05-25T12:47:10Z</time>
      </trkpt>
      <trkpt lat="46.25647" lon="4.6842">
        <ele>437.045</ele>
        <time>2011-05-25T12:47:24Z</time>
      </trkpt>
      <trkpt lat="46.25661" lon="4.68409">
        <ele>438.873</ele>
        <time>2011-05-25T12:47:39Z</time>
      </trkpt>
      <trkpt lat="46.25677" lon="4.68392">
        <ele>440.433</ele>
        <time>2011-05-25T12:47:59Z</time>
      </trkpt>
      <trkpt lat="46.25678" lon="4.68391">
        <ele>440.783</ele>
        <time>2011-05-25T12:48:00Z</time>
      </trkpt>
      <trkpt lat="46.25699" lon="4.6837">
        <ele>440.899</ele>
        <time>2011-05-25T12:48:24Z</time>
      </trkpt>
      <trkpt lat="46.25719" lon="4.68347">
        <ele>440.608</ele>
        <time>2011-05-25T12:48:47Z</time>
      </trkpt>
      <trkpt lat="46.2574" lon="4.68326">
        <ele>439.79</ele>
        <time>2011-05-25T12:49:12Z</time>
      </trkpt>
      <trkpt lat="46.2574" lon="4.68324">
        <ele>439.784</ele>
        <time>2011-05-25T12:49:14Z</time>
      </trkpt>
      <trkpt lat="46.25759" lon="4.68289">
        <ele>436.472</ele>
        <time>2011-05-25T12:49:41Z</time>
      </trkpt>
      <trkpt lat="46.25776" lon="4.6825">
        <ele>434.489</ele>
        <time>2011-05-25T12:50:10Z</time>
      </trkpt>
      <trkpt lat="46.25793" lon="4.68218">
        <ele>433.634</ele>
        <time>2011-05-25T12:50:33Z</time>
      </trkpt>
      <trkpt lat="46.2581" lon="4.68182">
        <ele>432.853</ele>
        <time>2011-05-25T12:50:59Z</time>
      </trkpt>
      <trkpt lat="46.25812" lon="4.68179">
        <ele>433.337</ele>
        <time>2011-05-25T12:51:01Z</time>
      </trkpt>
      <trkpt lat="46.25815" lon="4.68169">
        <ele>432.897</ele>
        <time>2011-05-25T12:51:08Z</time>
      </trkpt>
      <trkpt lat="46.25825" lon="4.68149">
        <ele>433</ele>
        <time>2011-05-25T12:51:23Z</time>
      </trkpt>
      <trkpt lat="46.25827" lon="4.68147">
        <ele>432.542</ele>
        <time>2011-05-25T12:51:25Z</time>
      </trkpt>
      <trkpt lat="46.2584" lon="4.68129">
        <ele>432.155</ele>
        <time>2011-05-25T12:51:38Z</time>
      </trkpt>
      <trkpt lat="46.25852" lon="4.68107">
        <ele>431.056</ele>
        <time>2011-05-25T12:51:54Z</time>
      </trkpt>
      <trkpt lat="46.25854" lon="4.68102">
        <ele>431.005</ele>
        <time>2011-05-25T12:51:58Z</time>
      </trkpt>
      <trkpt lat="46.25857" lon="4.6809">
        <ele>431.045</ele>
        <time>2011-05-25T12:52:08Z</time>
      </trkpt>
      <trkpt lat="46.25859" lon="4.68081">
        <ele>430.734</ele>
        <time>2011-05-25T12:52:20Z</time>
      </trkpt>
      <trkpt lat="46.25858" lon="4.68076">
        <ele>430.665</ele>
        <time>2011-05-25T12:52:24Z</time>
      </trkpt>
      <trkpt lat="46.25858" lon="4.68066">
        <ele>430.422</ele>
        <time>2011-05-25T12:52:30Z</time>
      </trkpt>
      <trkpt lat="46.25858" lon="4.68058">
        <ele>430.811</ele>
        <time>2011-05-25T12:52:35Z</time>
      </trkpt>
      <trkpt lat="46.25859" lon="4.68055">
        <ele>430.363</ele>
        <time>2011-05-25T12:52:37Z</time>
      </trkpt>
      <trkpt lat="46.25868" lon="4.68031">
        <ele>431.093</ele>
        <time>2011-05-25T12:52:55Z</time>
      </trkpt>
      <trkpt lat="46.25873" lon="4.68015">
        <ele>432.44</ele>
        <time>2011-05-25T12:53:10Z</time>
      </trkpt>
      <trkpt lat="46.25879" lon="4.67992">
        <ele>433.311</ele>
        <time>2011-05-25T12:53:27Z</time>
      </trkpt>
      <trkpt lat="46.25877" lon="4.67965">
        <ele>435.21</ele>
        <time>2011-05-25T12:53:47Z</time>
      </trkpt>
      <trkpt lat="46.25876" lon="4.67938">
        <ele>438.467</ele>
        <time>2011-05-25T12:54:07Z</time>
      </trkpt>
      <trkpt lat="46.25874" lon="4.67936">
        <ele>439.182</ele>
        <time>2011-05-25T12:54:12Z</time>
      </trkpt>
      <trkpt lat="46.25871" lon="4.67935">
        <ele>439.323</ele>
        <time>2011-05-25T12:54:16Z</time>
      </trkpt>
      <trkpt lat="46.25859" lon="4.67938">
        <ele>437.546</ele>
        <time>2011-05-25T12:54:34Z</time>
      </trkpt>
      <trkpt lat="46.25851" lon="4.67941">
        <ele>437.073</ele>
        <time>2011-05-25T12:54:46Z</time>
      </trkpt>
      <trkpt lat="46.25848" lon="4.67941">
        <ele>437.327</ele>
        <time>2011-05-25T12:54:49Z</time>
      </trkpt>
      <trkpt lat="46.25843" lon="4.67943">
        <ele>436.989</ele>
        <time>2011-05-25T12:54:55Z</time>
      </trkpt>
      <trkpt lat="46.25827" lon="4.67951">
        <ele>435.68</ele>
        <time>2011-05-25T12:55:11Z</time>
      </trkpt>
      <trkpt lat="46.25823" lon="4.67954">
        <ele>435.117</ele>
        <time>2011-05-25T12:55:17Z</time>
      </trkpt>
      <trkpt lat="46.25816" lon="4.67959">
        <ele>435.093</ele>
        <time>2011-05-25T12:55:25Z</time>
      </trkpt>
      <trkpt lat="46.25803" lon="4.67966">
        <ele>434.298</ele>
        <time>2011-05-25T12:55:38Z</time>
      </trkpt>
      <trkpt lat="46.25784" lon="4.6797">
        <ele>432.975</ele>
        <time>2011-05-25T12:55:57Z</time>
      </trkpt>
      <trkpt lat="46.25771" lon="4.67971">
        <ele>432.529</ele>
        <time>2011-05-25T12:56:10Z</time>
      </trkpt>
      <trkpt lat="46.25753" lon="4.67974">
        <ele>431.444</ele>
        <time>2011-05-25T12:56:25Z</time>
      </trkpt>
      <trkpt lat="46.25736" lon="4.67975">
        <ele>430.859</ele>
        <time>2011-05-25T12:56:40Z</time>
      </trkpt>
      <trkpt lat="46.25722" lon="4.67978">
        <ele>431.008</ele>
        <time>2011-05-25T12:56:52Z</time>
      </trkpt>
      <trkpt lat="46.25701" lon="4.67983">
        <ele>430.879</ele>
        <time>2011-05-25T12:57:08Z</time>
      </trkpt>
      <trkpt lat="46.25689" lon="4.67989">
        <ele>430.458</ele>
        <time>2011-05-25T12:57:20Z</time>
      </trkpt>
      <trkpt lat="46.25684" lon="4.67991">
        <ele>430.761</ele>
        <time>2011-05-25T12:57:25Z</time>
      </trkpt>
      <trkpt lat="46.25679" lon="4.67994">
        <ele>430.869</ele>
        <time>2011-05-25T12:57:29Z</time>
      </trkpt>
      <trkpt lat="46.2566" lon="4.68001">
        <ele>431.493</ele>
        <time>2011-05-25T12:57:46Z</time>
      </trkpt>
      <trkpt lat="46.25643" lon="4.68008">
        <ele>432.508</ele>
        <time>2011-05-25T12:58:06Z</time>
      </trkpt>
      <trkpt lat="46.25621" lon="4.68018">
        <ele>433.383</ele>
        <time>2011-05-25T12:58:26Z</time>
      </trkpt>
      <trkpt lat="46.2561" lon="4.68021">
        <ele>433.341</ele>
        <time>2011-05-25T12:58:37Z</time>
      </trkpt>
      <trkpt lat="46.25607" lon="4.68022">
        <ele>433.315</ele>
        <time>2011-05-25T12:58:39Z</time>
      </trkpt>
      <trkpt lat="46.2559" lon="4.68027">
        <ele>433.652</ele>
        <time>2011-05-25T12:58:56Z</time>
      </trkpt>
      <trkpt lat="46.25577" lon="4.68036">
        <ele>433.793</ele>
        <time>2011-05-25T12:59:11Z</time>
      </trkpt>
      <trkpt lat="46.25555" lon="4.68048">
        <ele>433.553</ele>
        <time>2011-05-25T12:59:30Z</time>
      </trkpt>
      <trkpt lat="46.25538" lon="4.68051">
        <ele>433.553</ele>
        <time>2011-05-25T12:59:46Z</time>
      </trkpt>
      <trkpt lat="46.25521" lon="4.68058">
        <ele>433.231</ele>
        <time>2011-05-25T13:00:02Z</time>
      </trkpt>
      <trkpt lat="46.25509" lon="4.68061">
        <ele>433.371</ele>
        <time>2011-05-25T13:00:18Z</time>
      </trkpt>
      <trkpt lat="46.25495" lon="4.68068">
        <ele>432.281</ele>
        <time>2011-05-25T13:00:51Z</time>
      </trkpt>
      <trkpt lat="46.25492" lon="4.68068">
        <ele>432.284</ele>
        <time>2011-05-25T13:00:54Z</time>
      </trkpt>
      <trkpt lat="46.25491" lon="4.68052">
        <ele>434.049</ele>
        <time>2011-05-25T13:01:10Z</time>
      </trkpt>
      <trkpt lat="46.25499" lon="4.68037">
        <ele>436.465</ele>
        <time>2011-05-25T13:01:30Z</time>
      </trkpt>
      <trkpt lat="46.25508" lon="4.6802">
        <ele>438.735</ele>
        <time>2011-05-25T13:01:50Z</time>
      </trkpt>
      <trkpt lat="46.25517" lon="4.68002">
        <ele>441.761</ele>
        <time>2011-05-25T13:02:10Z</time>
      </trkpt>
      <trkpt lat="46.25522" lon="4.67991">
        <ele>442.585</ele>
        <time>2011-05-25T13:02:21Z</time>
      </trkpt>
      <trkpt lat="46.25529" lon="4.67974">
        <ele>443.882</ele>
        <time>2011-05-25T13:02:37Z</time>
      </trkpt>
      <trkpt lat="46.25541" lon="4.67955">
        <ele>446.577</ele>
        <time>2011-05-25T13:02:57Z</time>
      </trkpt>
      <trkpt lat="46.2555" lon="4.67934">
        <ele>449.444</ele>
        <time>2011-05-25T13:03:21Z</time>
      </trkpt>
      <trkpt lat="46.25557" lon="4.67916">
        <ele>452.464</ele>
        <time>2011-05-25T13:03:39Z</time>
      </trkpt>
      <trkpt lat="46.25562" lon="4.679">
        <ele>454.15</ele>
        <time>2011-05-25T13:03:57Z</time>
      </trkpt>
      <trkpt lat="46.25568" lon="4.67886">
        <ele>454.908</ele>
        <time>2011-05-25T13:04:10Z</time>
      </trkpt>
      <trkpt lat="46.25571" lon="4.67869">
        <ele>456.008</ele>
        <time>2011-05-25T13:04:25Z</time>
      </trkpt>
      <trkpt lat="46.25579" lon="4.67846">
        <ele>458.146</ele>
        <time>2011-05-25T13:04:44Z</time>
      </trkpt>
      <trkpt lat="46.25583" lon="4.67833">
        <ele>460.271</ele>
        <time>2011-05-25T13:04:58Z</time>
      </trkpt>
      <trkpt lat="46.25586" lon="4.67816">
        <ele>461.849</ele>
        <time>2011-05-25T13:05:13Z</time>
      </trkpt>
      <trkpt lat="46.25587" lon="4.67811">
        <ele>462.712</ele>
        <time>2011-05-25T13:05:37Z</time>
      </trkpt>
      <trkpt lat="46.25586" lon="4.67788">
        <ele>465.311</ele>
        <time>2011-05-25T13:05:58Z</time>
      </trkpt>
      <trkpt lat="46.25593" lon="4.67768">
        <ele>468.154</ele>
        <time>2011-05-25T13:06:17Z</time>
      </trkpt>
      <trkpt lat="46.25595" lon="4.67765">
        <ele>468.224</ele>
        <time>2011-05-25T13:06:21Z</time>
      </trkpt>
      <trkpt lat="46.25603" lon="4.67747">
        <ele>470.257</ele>
        <time>2011-05-25T13:06:38Z</time>
      </trkpt>
      <trkpt lat="46.25612" lon="4.67733">
        <ele>471.874</ele>
        <time>2011-05-25T13:06:55Z</time>
      </trkpt>
      <trkpt lat="46.25619" lon="4.67724">
        <ele>473.865</ele>
        <time>2011-05-25T13:07:08Z</time>
      </trkpt>
      <trkpt lat="46.2562" lon="4.67722">
        <ele>473.796</ele>
        <time>2011-05-25T13:07:10Z</time>
      </trkpt>
      <trkpt lat="46.25629" lon="4.67712">
        <ele>475.831</ele>
        <time>2011-05-25T13:07:23Z</time>
      </trkpt>
      <trkpt lat="46.2564" lon="4.67706">
        <ele>477.985</ele>
        <time>2011-05-25T13:07:41Z</time>
      </trkpt>
      <trkpt lat="46.2565" lon="4.67703">
        <ele>480.572</ele>
        <time>2011-05-25T13:07:56Z</time>
      </trkpt>
      <trkpt lat="46.25659" lon="4.67699">
        <ele>481.945</ele>
        <time>2011-05-25T13:08:08Z</time>
      </trkpt>
      <trkpt lat="46.25668" lon="4.6769">
        <ele>484.429</ele>
        <time>2011-05-25T13:08:23Z</time>
      </trkpt>
      <trkpt lat="46.25672" lon="4.67684">
        <ele>485.392</ele>
        <time>2011-05-25T13:08:41Z</time>
      </trkpt>
      <trkpt lat="46.25681" lon="4.67676">
        <ele>487.346</ele>
        <time>2011-05-25T13:09:04Z</time>
      </trkpt>
      <trkpt lat="46.25688" lon="4.67666">
        <ele>488.245</ele>
        <time>2011-05-25T13:09:15Z</time>
      </trkpt>
      <trkpt lat="46.25696" lon="4.67656">
        <ele>491.389</ele>
        <time>2011-05-25T13:09:29Z</time>
      </trkpt>
      <trkpt lat="46.25708" lon="4.67643">
        <ele>492.961</ele>
        <time>2011-05-25T13:09:46Z</time>
      </trkpt>
      <trkpt lat="46.25718" lon="4.67624">
        <ele>495.892</ele>
        <time>2011-05-25T13:10:06Z</time>
      </trkpt>
      <trkpt lat="46.25722" lon="4.67606">
        <ele>497.75</ele>
        <time>2011-05-25T13:10:23Z</time>
      </trkpt>
      <trkpt lat="46.25725" lon="4.67591">
        <ele>500.222</ele>
        <time>2011-05-25T13:10:37Z</time>
      </trkpt>
      <trkpt lat="46.2573" lon="4.67578">
        <ele>502.598</ele>
        <time>2011-05-25T13:10:51Z</time>
      </trkpt>
      <trkpt lat="46.25729" lon="4.67565">
        <ele>505.5</ele>
        <time>2011-05-25T13:11:50Z</time>
      </trkpt>
      <trkpt lat="46.25729" lon="4.6756">
        <ele>506.542</ele>
        <time>2011-05-25T13:12:09Z</time>
      </trkpt>
      <trkpt lat="46.25731" lon="4.67552">
        <ele>507.408</ele>
        <time>2011-05-25T13:12:38Z</time>
      </trkpt>
      <trkpt lat="46.25732" lon="4.67541">
        <ele>509.55</ele>
        <time>2011-05-25T13:12:56Z</time>
      </trkpt>
      <trkpt lat="46.2574" lon="4.67524">
        <ele>512.139</ele>
        <time>2011-05-25T13:13:12Z</time>
      </trkpt>
      <trkpt lat="46.25748" lon="4.67509">
        <ele>514.724</ele>
        <time>2011-05-25T13:13:30Z</time>
      </trkpt>
      <trkpt lat="46.25753" lon="4.67496">
        <ele>517.464</ele>
        <time>2011-05-25T13:13:44Z</time>
      </trkpt>
      <trkpt lat="46.25757" lon="4.67487">
        <ele>519.579</ele>
        <time>2011-05-25T13:13:57Z</time>
      </trkpt>
      <trkpt lat="46.25761" lon="4.6748">
        <ele>521.294</ele>
        <time>2011-05-25T13:14:09Z</time>
      </trkpt>
      <trkpt lat="46.25764" lon="4.6747">
        <ele>523.137</ele>
        <time>2011-05-25T13:14:21Z</time>
      </trkpt>
      <trkpt lat="46.25764" lon="4.67458">
        <ele>524.84</ele>
        <time>2011-05-25T13:14:33Z</time>
      </trkpt>
      <trkpt lat="46.25764" lon="4.67457">
        <ele>525.487</ele>
        <time>2011-05-25T13:14:35Z</time>
      </trkpt>
      <trkpt lat="46.25761" lon="4.67446">
        <ele>527.017</ele>
        <time>2011-05-25T13:14:46Z</time>
      </trkpt>
      <trkpt lat="46.25761" lon="4.67437">
        <ele>528.808</ele>
        <time>2011-05-25T13:14:59Z</time>
      </trkpt>
      <trkpt lat="46.25756" lon="4.6743">
        <ele>531.921</ele>
        <time>2011-05-25T13:15:13Z</time>
      </trkpt>
      <trkpt lat="46.25755" lon="4.67429">
        <ele>532.58</ele>
        <time>2011-05-25T13:15:32Z</time>
      </trkpt>
      <trkpt lat="46.25747" lon="4.67428">
        <ele>534.417</ele>
        <time>2011-05-25T13:15:52Z</time>
      </trkpt>
      <trkpt lat="46.25736" lon="4.6743">
        <ele>537.581</ele>
        <time>2011-05-25T13:16:10Z</time>
      </trkpt>
      <trkpt lat="46.25725" lon="4.6743">
        <ele>539.38</ele>
        <time>2011-05-25T13:16:26Z</time>
      </trkpt>
      <trkpt lat="46.25719" lon="4.67431">
        <ele>541.088</ele>
        <time>2011-05-25T13:16:34Z</time>
      </trkpt>
      <trkpt lat="46.25706" lon="4.67432">
        <ele>544.307</ele>
        <time>2011-05-25T13:16:56Z</time>
      </trkpt>
      <trkpt lat="46.25697" lon="4.67431">
        <ele>547.332</ele>
        <time>2011-05-25T13:17:13Z</time>
      </trkpt>
      <trkpt lat="46.25686" lon="4.67431">
        <ele>550.888</ele>
        <time>2011-05-25T13:17:30Z</time>
      </trkpt>
      <trkpt lat="46.25676" lon="4.67427">
        <ele>554.061</ele>
        <time>2011-05-25T13:17:49Z</time>
      </trkpt>
      <trkpt lat="46.25663" lon="4.6743">
        <ele>556.694</ele>
        <time>2011-05-25T13:18:08Z</time>
      </trkpt>
      <trkpt lat="46.25651" lon="4.6743">
        <ele>559.929</ele>
        <time>2011-05-25T13:18:25Z</time>
      </trkpt>
      <trkpt lat="46.25638" lon="4.67427">
        <ele>562.504</ele>
        <time>2011-05-25T13:18:44Z</time>
      </trkpt>
      <trkpt lat="46.25626" lon="4.67422">
        <ele>565.025</ele>
        <time>2011-05-25T13:19:01Z</time>
      </trkpt>
      <trkpt lat="46.25611" lon="4.67414">
        <ele>567.228</ele>
        <time>2011-05-25T13:19:20Z</time>
      </trkpt>
      <trkpt lat="46.25611" lon="4.67414">
        <ele>567.484</ele>
        <time>2011-05-25T13:20:05Z</time>
      </trkpt>
      <trkpt lat="46.25606" lon="4.67411">
        <ele>567.491</ele>
        <time>2011-05-25T13:20:37Z</time>
      </trkpt>
      <trkpt lat="46.25594" lon="4.67398">
        <ele>569.375</ele>
        <time>2011-05-25T13:21:05Z</time>
      </trkpt>
      <trkpt lat="46.25582" lon="4.67389">
        <ele>569.619</ele>
        <time>2011-05-25T13:21:28Z</time>
      </trkpt>
      <trkpt lat="46.25579" lon="4.67378">
        <ele>570.59</ele>
        <time>2011-05-25T13:21:44Z</time>
      </trkpt>
      <trkpt lat="46.25579" lon="4.67377">
        <ele>571.057</ele>
        <time>2011-05-25T13:21:45Z</time>
      </trkpt>
      <trkpt lat="46.25576" lon="4.67362">
        <ele>572.07</ele>
        <time>2011-05-25T13:21:56Z</time>
      </trkpt>
      <trkpt lat="46.25574" lon="4.67356">
        <ele>571.667</ele>
        <time>2011-05-25T13:22:01Z</time>
      </trkpt>
      <trkpt lat="46.25558" lon="4.6735">
        <ele>568.904</ele>
        <time>2011-05-25T13:22:17Z</time>
      </trkpt>
      <trkpt lat="46.25553" lon="4.67349">
        <ele>568.731</ele>
        <time>2011-05-25T13:22:22Z</time>
      </trkpt>
      <trkpt lat="46.25547" lon="4.67361">
        <ele>567.086</ele>
        <time>2011-05-25T13:22:41Z</time>
      </trkpt>
      <trkpt lat="46.25541" lon="4.67368">
        <ele>567.034</ele>
        <time>2011-05-25T13:23:06Z</time>
      </trkpt>
      <trkpt lat="46.25522" lon="4.67385">
        <ele>565.791</ele>
        <time>2011-05-25T13:23:25Z</time>
      </trkpt>
      <trkpt lat="46.25517" lon="4.67389">
        <ele>565.249</ele>
        <time>2011-05-25T13:23:31Z</time>
      </trkpt>
      <trkpt lat="46.25503" lon="4.67405">
        <ele>564.727</ele>
        <time>2011-05-25T13:23:47Z</time>
      </trkpt>
      <trkpt lat="46.25484" lon="4.67421">
        <ele>562.224</ele>
        <time>2011-05-25T13:24:08Z</time>
      </trkpt>
      <trkpt lat="46.25469" lon="4.67433">
        <ele>561.331</ele>
        <time>2011-05-25T13:24:24Z</time>
      </trkpt>
      <trkpt lat="46.25455" lon="4.67443">
        <ele>561.361</ele>
        <time>2011-05-25T13:24:38Z</time>
      </trkpt>
      <trkpt lat="46.25453" lon="4.67444">
        <ele>560.904</ele>
        <time>2011-05-25T13:24:40Z</time>
      </trkpt>
      <trkpt lat="46.25439" lon="4.67452">
        <ele>560.821</ele>
        <time>2011-05-25T13:24:53Z</time>
      </trkpt>
      <trkpt lat="46.25426" lon="4.67463">
        <ele>560.225</ele>
        <time>2011-05-25T13:25:09Z</time>
      </trkpt>
      <trkpt lat="46.25411" lon="4.67474">
        <ele>560.111</ele>
        <time>2011-05-25T13:25:24Z</time>
      </trkpt>
      <trkpt lat="46.25396" lon="4.67483">
        <ele>560.24</ele>
        <time>2011-05-25T13:25:39Z</time>
      </trkpt>
      <trkpt lat="46.2539" lon="4.67489">
        <ele>560.651</ele>
        <time>2011-05-25T13:25:51Z</time>
      </trkpt>
      <trkpt lat="46.25371" lon="4.67504">
        <ele>561.511</ele>
        <time>2011-05-25T13:26:10Z</time>
      </trkpt>
      <trkpt lat="46.25353" lon="4.67514">
        <ele>560.976</ele>
        <time>2011-05-25T13:26:29Z</time>
      </trkpt>
      <trkpt lat="46.25334" lon="4.67526">
        <ele>561.151</ele>
        <time>2011-05-25T13:26:48Z</time>
      </trkpt>
      <trkpt lat="46.25312" lon="4.67538">
        <ele>560.336</ele>
        <time>2011-05-25T13:27:09Z</time>
      </trkpt>
      <trkpt lat="46.25301" lon="4.67547">
        <ele>560.422</ele>
        <time>2011-05-25T13:27:31Z</time>
      </trkpt>
      <trkpt lat="46.25277" lon="4.67564">
        <ele>558.818</ele>
        <time>2011-05-25T13:27:54Z</time>
      </trkpt>
      <trkpt lat="46.25256" lon="4.67572">
        <ele>555.582</ele>
        <time>2011-05-25T13:28:13Z</time>
      </trkpt>
      <trkpt lat="46.25243" lon="4.67578">
        <ele>552.189</ele>
        <time>2011-05-25T13:28:28Z</time>
      </trkpt>
      <trkpt lat="46.25235" lon="4.67582">
        <ele>550.494</ele>
        <time>2011-05-25T13:28:37Z</time>
      </trkpt>
      <trkpt lat="46.25233" lon="4.67585">
        <ele>550.655</ele>
        <time>2011-05-25T13:28:40Z</time>
      </trkpt>
      <trkpt lat="46.25228" lon="4.67585">
        <ele>549.016</ele>
        <time>2011-05-25T13:28:45Z</time>
      </trkpt>
      <trkpt lat="46.25225" lon="4.67588">
        <ele>547.923</ele>
        <time>2011-05-25T13:28:49Z</time>
      </trkpt>
      <trkpt lat="46.25219" lon="4.67591">
        <ele>546.605</ele>
        <time>2011-05-25T13:29:11Z</time>
      </trkpt>
      <trkpt lat="46.25201" lon="4.67601">
        <ele>543.569</ele>
        <time>2011-05-25T13:29:27Z</time>
      </trkpt>
      <trkpt lat="46.25194" lon="4.67606">
        <ele>541.929</ele>
        <time>2011-05-25T13:29:34Z</time>
      </trkpt>
      <trkpt lat="46.25177" lon="4.67617">
        <ele>538.306</ele>
        <time>2011-05-25T13:29:52Z</time>
      </trkpt>
      <trkpt lat="46.25168" lon="4.67622">
        <ele>537.263</ele>
        <time>2011-05-25T13:30:11Z</time>
      </trkpt>
      <trkpt lat="46.25151" lon="4.67636">
        <ele>534.106</ele>
        <time>2011-05-25T13:30:30Z</time>
      </trkpt>
      <trkpt lat="46.2513" lon="4.6765">
        <ele>531.803</ele>
        <time>2011-05-25T13:30:50Z</time>
      </trkpt>
      <trkpt lat="46.25117" lon="4.67665">
        <ele>530.519</ele>
        <time>2011-05-25T13:31:34Z</time>
      </trkpt>
      <trkpt lat="46.251" lon="4.67672">
        <ele>529.061</ele>
        <time>2011-05-25T13:31:50Z</time>
      </trkpt>
      <trkpt lat="46.25096" lon="4.67672">
        <ele>529.295</ele>
        <time>2011-05-25T13:31:55Z</time>
      </trkpt>
      <trkpt lat="46.25077" lon="4.67683">
        <ele>527.227</ele>
        <time>2011-05-25T13:32:13Z</time>
      </trkpt>
      <trkpt lat="46.25061" lon="4.67704">
        <ele>524.977</ele>
        <time>2011-05-25T13:32:35Z</time>
      </trkpt>
      <trkpt lat="46.25057" lon="4.67708">
        <ele>524.58</ele>
        <time>2011-05-25T13:32:39Z</time>
      </trkpt>
      <trkpt lat="46.25045" lon="4.67714">
        <ele>523.188</ele>
        <time>2011-05-25T13:32:54Z</time>
      </trkpt>
      <trkpt lat="46.25033" lon="4.67725">
        <ele>522.656</ele>
        <time>2011-05-25T13:33:11Z</time>
      </trkpt>
      <trkpt lat="46.25022" lon="4.67729">
        <ele>522.925</ele>
        <time>2011-05-25T13:33:30Z</time>
      </trkpt>
      <trkpt lat="46.24995" lon="4.67741">
        <ele>523.203</ele>
        <time>2011-05-25T13:33:54Z</time>
      </trkpt>
      <trkpt lat="46.24966" lon="4.67758">
        <ele>523.57</ele>
        <time>2011-05-25T13:34:22Z</time>
      </trkpt>
      <trkpt lat="46.24951" lon="4.6776">
        <ele>523.764</ele>
        <time>2011-05-25T13:34:37Z</time>
      </trkpt>
      <trkpt lat="46.24942" lon="4.67768">
        <ele>524.029</ele>
        <time>2011-05-25T13:34:49Z</time>
      </trkpt>
      <trkpt lat="46.24935" lon="4.67775">
        <ele>523.315</ele>
        <time>2011-05-25T13:34:58Z</time>
      </trkpt>
      <trkpt lat="46.2491" lon="4.67795">
        <ele>522.88</ele>
        <time>2011-05-25T13:35:23Z</time>
      </trkpt>
      <trkpt lat="46.24888" lon="4.67813">
        <ele>521.536</ele>
        <time>2011-05-25T13:35:47Z</time>
      </trkpt>
      <trkpt lat="46.24854" lon="4.6784">
        <ele>520.187</ele>
        <time>2011-05-25T13:36:21Z</time>
      </trkpt>
      <trkpt lat="46.24831" lon="4.67863">
        <ele>519.441</ele>
        <time>2011-05-25T13:36:47Z</time>
      </trkpt>
      <trkpt lat="46.24819" lon="4.67879">
        <ele>518.684</ele>
        <time>2011-05-25T13:37:05Z</time>
      </trkpt>
      <trkpt lat="46.24795" lon="4.679">
        <ele>517.009</ele>
        <time>2011-05-25T13:37:29Z</time>
      </trkpt>
      <trkpt lat="46.24781" lon="4.67918">
        <ele>513.889</ele>
        <time>2011-05-25T13:37:47Z</time>
      </trkpt>
      <trkpt lat="46.24765" lon="4.67933">
        <ele>510.586</ele>
        <time>2011-05-25T13:38:06Z</time>
      </trkpt>
      <trkpt lat="46.24756" lon="4.6795">
        <ele>507.487</ele>
        <time>2011-05-25T13:38:23Z</time>
      </trkpt>
      <trkpt lat="46.24755" lon="4.67958">
        <ele>506.378</ele>
        <time>2011-05-25T13:38:37Z</time>
      </trkpt>
      <trkpt lat="46.24751" lon="4.67975">
        <ele>503.852</ele>
        <time>2011-05-25T13:38:55Z</time>
      </trkpt>
      <trkpt lat="46.24749" lon="4.67979">
        <ele>503.224</ele>
        <time>2011-05-25T13:38:58Z</time>
      </trkpt>
      <trkpt lat="46.24734" lon="4.68002">
        <ele>499.743</ele>
        <time>2011-05-25T13:39:18Z</time>
      </trkpt>
      <trkpt lat="46.24727" lon="4.68009">
        <ele>498.357</ele>
        <time>2011-05-25T13:39:27Z</time>
      </trkpt>
      <trkpt lat="46.24719" lon="4.6803">
        <ele>494.584</ele>
        <time>2011-05-25T13:39:43Z</time>
      </trkpt>
      <trkpt lat="46.24719" lon="4.68031">
        <ele>494.581</ele>
        <time>2011-05-25T13:39:44Z</time>
      </trkpt>
      <trkpt lat="46.24713" lon="4.68052">
        <ele>491.737</ele>
        <time>2011-05-25T13:40:00Z</time>
      </trkpt>
      <trkpt lat="46.24711" lon="4.68061">
        <ele>490.661</ele>
        <time>2011-05-25T13:40:11Z</time>
      </trkpt>
      <trkpt lat="46.24702" lon="4.68073">
        <ele>489.051</ele>
        <time>2011-05-25T13:40:33Z</time>
      </trkpt>
      <trkpt lat="46.24698" lon="4.68085">
        <ele>485.715</ele>
        <time>2011-05-25T13:40:42Z</time>
      </trkpt>
      <trkpt lat="46.24693" lon="4.68105">
        <ele>483.063</ele>
        <time>2011-05-25T13:40:56Z</time>
      </trkpt>
      <trkpt lat="46.24691" lon="4.68108">
        <ele>482.985</ele>
        <time>2011-05-25T13:41:00Z</time>
      </trkpt>
      <trkpt lat="46.24671" lon="4.6812">
        <ele>480.892</ele>
        <time>2011-05-25T13:41:20Z</time>
      </trkpt>
      <trkpt lat="46.24656" lon="4.68138">
        <ele>479.048</ele>
        <time>2011-05-25T13:41:38Z</time>
      </trkpt>
      <trkpt lat="46.24647" lon="4.68151">
        <ele>477.147</ele>
        <time>2011-05-25T13:41:54Z</time>
      </trkpt>
      <trkpt lat="46.24636" lon="4.68171">
        <ele>474.062</ele>
        <time>2011-05-25T13:42:11Z</time>
      </trkpt>
      <trkpt lat="46.24632" lon="4.68179">
        <ele>473.671</ele>
        <time>2011-05-25T13:42:20Z</time>
      </trkpt>
      <trkpt lat="46.24625" lon="4.68189">
        <ele>471.55</ele>
        <time>2011-05-25T13:42:35Z</time>
      </trkpt>
      <trkpt lat="46.24619" lon="4.68202">
        <ele>469.657</ele>
        <time>2011-05-25T13:42:51Z</time>
      </trkpt>
      <trkpt lat="46.24613" lon="4.68213">
        <ele>468.424</ele>
        <time>2011-05-25T13:42:59Z</time>
      </trkpt>
      <trkpt lat="46.24613" lon="4.68219">
        <ele>468.059</ele>
        <time>2011-05-25T13:43:02Z</time>
      </trkpt>
      <trkpt lat="46.24604" lon="4.68242">
        <ele>464.664</ele>
        <time>2011-05-25T13:43:18Z</time>
      </trkpt>
      <trkpt lat="46.24602" lon="4.68246">
        <ele>464.181</ele>
        <time>2011-05-25T13:43:21Z</time>
      </trkpt>
      <trkpt lat="46.24599" lon="4.68252">
        <ele>463.394</ele>
        <time>2011-05-25T13:43:25Z</time>
      </trkpt>
      <trkpt lat="46.24595" lon="4.68262">
        <ele>461.479</ele>
        <time>2011-05-25T13:43:39Z</time>
      </trkpt>
      <trkpt lat="46.24591" lon="4.68267">
        <ele>461.473</ele>
        <time>2011-05-25T13:43:43Z</time>
      </trkpt>
      <trkpt lat="46.24589" lon="4.68272">
        <ele>460.263</ele>
        <time>2011-05-25T13:43:47Z</time>
      </trkpt>
      <trkpt lat="46.24584" lon="4.68283">
        <ele>458.94</ele>
        <time>2011-05-25T13:44:01Z</time>
      </trkpt>
      <trkpt lat="46.24571" lon="4.68306">
        <ele>456.214</ele>
        <time>2011-05-25T13:44:18Z</time>
      </trkpt>
      <trkpt lat="46.24554" lon="4.68336">
        <ele>453.196</ele>
        <time>2011-05-25T13:44:41Z</time>
      </trkpt>
      <trkpt lat="46.24545" lon="4.68354">
        <ele>451.602</ele>
        <time>2011-05-25T13:44:54Z</time>
      </trkpt>
      <trkpt lat="46.24533" lon="4.68387">
        <ele>449.5</ele>
        <time>2011-05-25T13:45:20Z</time>
      </trkpt>
      <trkpt lat="46.24526" lon="4.68406">
        <ele>448.075</ele>
        <time>2011-05-25T13:45:39Z</time>
      </trkpt>
      <trkpt lat="46.24524" lon="4.68408">
        <ele>447.968</ele>
        <time>2011-05-25T13:45:49Z</time>
      </trkpt>
      <trkpt lat="46.2452" lon="4.6842">
        <ele>447.184</ele>
        <time>2011-05-25T13:45:57Z</time>
      </trkpt>
      <trkpt lat="46.24516" lon="4.68429">
        <ele>446.704</ele>
        <time>2011-05-25T13:46:08Z</time>
      </trkpt>
      <trkpt lat="46.24513" lon="4.68436">
        <ele>445.991</ele>
        <time>2011-05-25T13:46:14Z</time>
      </trkpt>
      <trkpt lat="46.24502" lon="4.68464">
        <ele>445.404</ele>
        <time>2011-05-25T13:46:34Z</time>
      </trkpt>
      <trkpt lat="46.24497" lon="4.6848">
        <ele>444.452</ele>
        <time>2011-05-25T13:46:49Z</time>
      </trkpt>
      <trkpt lat="46.24483" lon="4.68502">
        <ele>444.137</ele>
        <time>2011-05-25T13:47:07Z</time>
      </trkpt>
      <trkpt lat="46.24467" lon="4.68523">
        <ele>440.42</ele>
        <time>2011-05-25T13:47:25Z</time>
      </trkpt>
      <trkpt lat="46.24458" lon="4.6854">
        <ele>438.668</ele>
        <time>2011-05-25T13:47:47Z</time>
      </trkpt>
      <trkpt lat="46.24455" lon="4.68549">
        <ele>437.607</ele>
        <time>2011-05-25T13:48:03Z</time>
      </trkpt>
      <trkpt lat="46.24441" lon="4.68574">
        <ele>434.752</ele>
        <time>2011-05-25T13:48:21Z</time>
      </trkpt>
      <trkpt lat="46.24433" lon="4.68589">
        <ele>433.329</ele>
        <time>2011-05-25T13:48:31Z</time>
      </trkpt>
      <trkpt lat="46.24426" lon="4.68599">
        <ele>431.615</ele>
        <time>2011-05-25T13:48:47Z</time>
      </trkpt>
      <trkpt lat="46.24423" lon="4.68605">
        <ele>430.954</ele>
        <time>2011-05-25T13:49:34Z</time>
      </trkpt>
      <trkpt lat="46.24408" lon="4.68636">
        <ele>428.82</ele>
        <time>2011-05-25T13:49:55Z</time>
      </trkpt>
      <trkpt lat="46.24389" lon="4.68673">
        <ele>426.547</ele>
        <time>2011-05-25T13:50:21Z</time>
      </trkpt>
      <trkpt lat="46.24379" lon="4.68688">
        <ele>425.219</ele>
        <time>2011-05-25T13:50:33Z</time>
      </trkpt>
      <trkpt lat="46.24355" lon="4.68711">
        <ele>422.182</ele>
        <time>2011-05-25T13:50:56Z</time>
      </trkpt>
      <trkpt lat="46.24334" lon="4.68732">
        <ele>419.103</ele>
        <time>2011-05-25T13:51:17Z</time>
      </trkpt>
      <trkpt lat="46.2433" lon="4.68734">
        <ele>418.67</ele>
        <time>2011-05-25T13:51:21Z</time>
      </trkpt>
      <trkpt lat="46.2432" lon="4.6873">
        <ele>418.154</ele>
        <time>2011-05-25T13:51:37Z</time>
      </trkpt>
      <trkpt lat="46.24316" lon="4.68726">
        <ele>418.07</ele>
        <time>2011-05-25T13:51:41Z</time>
      </trkpt>
      <trkpt lat="46.24297" lon="4.68706">
        <ele>418.562</ele>
        <time>2011-05-25T13:52:03Z</time>
      </trkpt>
      <trkpt lat="46.24279" lon="4.68687">
        <ele>418.238</ele>
        <time>2011-05-25T13:52:22Z</time>
      </trkpt>
      <trkpt lat="46.24267" lon="4.68677">
        <ele>419.459</ele>
        <time>2011-05-25T13:52:37Z</time>
      </trkpt>
      <trkpt lat="46.24264" lon="4.68675">
        <ele>419.799</ele>
        <time>2011-05-25T13:52:40Z</time>
      </trkpt>
      <trkpt lat="46.24259" lon="4.68668">
        <ele>420.428</ele>
        <time>2011-05-25T13:52:53Z</time>
      </trkpt>
      <trkpt lat="46.24251" lon="4.68681">
        <ele>419.3</ele>
        <time>2011-05-25T13:53:07Z</time>
      </trkpt>
      <trkpt lat="46.24243" lon="4.68696">
        <ele>416.15</ele>
        <time>2011-05-25T13:53:46Z</time>
      </trkpt>
      <trkpt lat="46.24242" lon="4.68697">
        <ele>416.486</ele>
        <time>2011-05-25T13:53:47Z</time>
      </trkpt>
      <trkpt lat="46.24238" lon="4.68703">
        <ele>415.468</ele>
        <time>2011-05-25T13:53:52Z</time>
      </trkpt>
      <trkpt lat="46.24229" lon="4.68708">
        <ele>414.196</ele>
        <time>2011-05-25T13:54:01Z</time>
      </trkpt>
      <trkpt lat="46.24206" lon="4.68718">
        <ele>411.036</ele>
        <time>2011-05-25T13:54:23Z</time>
      </trkpt>
      <trkpt lat="46.24189" lon="4.68727">
        <ele>409.547</ele>
        <time>2011-05-25T13:54:42Z</time>
      </trkpt>
      <trkpt lat="46.24178" lon="4.68735">
        <ele>408.045</ele>
        <time>2011-05-25T13:54:54Z</time>
      </trkpt>
      <trkpt lat="46.24154" lon="4.68753">
        <ele>405.316</ele>
        <time>2011-05-25T13:55:19Z</time>
      </trkpt>
      <trkpt lat="46.24133" lon="4.68769">
        <ele>402.37</ele>
        <time>2011-05-25T13:55:40Z</time>
      </trkpt>
      <trkpt lat="46.24108" lon="4.68798">
        <ele>400.109</ele>
        <time>2011-05-25T13:56:08Z</time>
      </trkpt>
      <trkpt lat="46.24087" lon="4.68827">
        <ele>397.945</ele>
        <time>2011-05-25T13:56:33Z</time>
      </trkpt>
      <trkpt lat="46.24086" lon="4.68828">
        <ele>397.759</ele>
        <time>2011-05-25T13:56:34Z</time>
      </trkpt>
      <trkpt lat="46.24069" lon="4.68855">
        <ele>395.401</ele>
        <time>2011-05-25T13:56:55Z</time>
      </trkpt>
      <trkpt lat="46.24057" lon="4.68879">
        <ele>393.54</ele>
        <time>2011-05-25T13:57:13Z</time>
      </trkpt>
      <trkpt lat="46.24038" lon="4.6891">
        <ele>391.572</ele>
        <time>2011-05-25T13:57:38Z</time>
      </trkpt>
      <trkpt lat="46.24025" lon="4.68931">
        <ele>389.561</ele>
        <time>2011-05-25T13:57:56Z</time>
      </trkpt>
      <trkpt lat="46.24022" lon="4.68938">
        <ele>389.083</ele>
        <time>2011-05-25T13:58:12Z</time>
      </trkpt>
      <trkpt lat="46.24015" lon="4.6896">
        <ele>388.791</ele>
        <time>2011-05-25T13:58:28Z</time>
      </trkpt>
      <trkpt lat="46.24005" lon="4.68985">
        <ele>388.085</ele>
        <time>2011-05-25T13:58:46Z</time>
      </trkpt>
      <trkpt lat="46.23993" lon="4.69018">
        <ele>386.367</ele>
        <time>2011-05-25T13:59:10Z</time>
      </trkpt>
      <trkpt lat="46.23983" lon="4.69056">
        <ele>385.212</ele>
        <time>2011-05-25T13:59:34Z</time>
      </trkpt>
      <trkpt lat="46.23972" lon="4.69097">
        <ele>382.583</ele>
        <time>2011-05-25T14:00:00Z</time>
      </trkpt>
      <trkpt lat="46.23967" lon="4.69131">
        <ele>380.89</ele>
        <time>2011-05-25T14:00:22Z</time>
      </trkpt>
      <trkpt lat="46.23967" lon="4.69164">
        <ele>379.566</ele>
        <time>2011-05-25T14:00:42Z</time>
      </trkpt>
      <trkpt lat="46.23964" lon="4.69206">
        <ele>376.299</ele>
        <time>2011-05-25T14:01:08Z</time>
      </trkpt>
      <trkpt lat="46.23963" lon="4.69238">
        <ele>373.394</ele>
        <time>2011-05-25T14:01:29Z</time>
      </trkpt>
      <trkpt lat="46.23962" lon="4.69241">
        <ele>372.156</ele>
        <time>2011-05-25T14:01:32Z</time>
      </trkpt>
      <trkpt lat="46.23958" lon="4.69263">
        <ele>368.773</ele>
        <time>2011-05-25T14:01:46Z</time>
      </trkpt>
      <trkpt lat="46.23955" lon="4.69287">
        <ele>365.613</ele>
        <time>2011-05-25T14:02:01Z</time>
      </trkpt>
      <trkpt lat="46.23952" lon="4.69301">
        <ele>363.153</ele>
        <time>2011-05-25T14:02:20Z</time>
      </trkpt>
      <trkpt lat="46.23952" lon="4.69302">
        <ele>362.495</ele>
        <time>2011-05-25T14:02:41Z</time>
      </trkpt>
      <trkpt lat="46.23952" lon="4.69315">
        <ele>360.819</ele>
        <time>2011-05-25T14:02:54Z</time>
      </trkpt>
      <trkpt lat="46.23951" lon="4.69334">
        <ele>358.73</ele>
        <time>2011-05-25T14:03:06Z</time>
      </trkpt>
      <trkpt lat="46.23956" lon="4.69356">
        <ele>355.381</ele>
        <time>2011-05-25T14:03:21Z</time>
      </trkpt>
      <trkpt lat="46.23953" lon="4.69386">
        <ele>352.379</ele>
        <time>2011-05-25T14:03:40Z</time>
      </trkpt>
      <trkpt lat="46.23949" lon="4.69405">
        <ele>349.375</ele>
        <time>2011-05-25T14:03:53Z</time>
      </trkpt>
      <trkpt lat="46.23946" lon="4.69418">
        <ele>348.056</ele>
        <time>2011-05-25T14:04:02Z</time>
      </trkpt>
      <trkpt lat="46.23942" lon="4.69434">
        <ele>346.031</ele>
        <time>2011-05-25T14:04:13Z</time>
      </trkpt>
      <trkpt lat="46.23935" lon="4.69463">
        <ele>341.491</ele>
        <time>2011-05-25T14:04:48Z</time>
      </trkpt>
      <trkpt lat="46.23929" lon="4.69485">
        <ele>338.112</ele>
        <time>2011-05-25T14:05:03Z</time>
      </trkpt>
      <trkpt lat="46.23928" lon="4.69493">
        <ele>336.779</ele>
        <time>2011-05-25T14:05:09Z</time>
      </trkpt>
      <trkpt lat="46.23927" lon="4.69511">
        <ele>334.255</ele>
        <time>2011-05-25T14:05:23Z</time>
      </trkpt>
      <trkpt lat="46.23928" lon="4.69536">
        <ele>331.078</ele>
        <time>2011-05-25T14:05:38Z</time>
      </trkpt>
      <trkpt lat="46.23922" lon="4.6957">
        <ele>327.723</ele>
        <time>2011-05-25T14:05:59Z</time>
      </trkpt>
      <trkpt lat="46.23918" lon="4.69588">
        <ele>326.324</ele>
        <time>2011-05-25T14:06:18Z</time>
      </trkpt>
      <trkpt lat="46.23912" lon="4.696">
        <ele>324.905</ele>
        <time>2011-05-25T14:06:30Z</time>
      </trkpt>
      <trkpt lat="46.23901" lon="4.69626">
        <ele>322.359</ele>
        <time>2011-05-25T14:06:49Z</time>
      </trkpt>
      <trkpt lat="46.23889" lon="4.69667">
        <ele>319.314</ele>
        <time>2011-05-25T14:07:15Z</time>
      </trkpt>
      <trkpt lat="46.23872" lon="4.69697">
        <ele>316.707</ele>
        <time>2011-05-25T14:07:38Z</time>
      </trkpt>
      <trkpt lat="46.23855" lon="4.69721">
        <ele>314.778</ele>
        <time>2011-05-25T14:08:00Z</time>
      </trkpt>
      <trkpt lat="46.23837" lon="4.69748">
        <ele>312.828</ele>
        <time>2011-05-25T14:08:24Z</time>
      </trkpt>
      <trkpt lat="46.23824" lon="4.69788">
        <ele>310.603</ele>
        <time>2011-05-25T14:08:49Z</time>
      </trkpt>
      <trkpt lat="46.23822" lon="4.698">
        <ele>309.626</ele>
        <time>2011-05-25T14:08:57Z</time>
      </trkpt>
      <trkpt lat="46.23822" lon="4.69806">
        <ele>308.467</ele>
        <time>2011-05-25T14:09:17Z</time>
      </trkpt>
      <trkpt lat="46.2382" lon="4.6981">
        <ele>307.544</ele>
        <time>2011-05-25T14:09:54Z</time>
      </trkpt>
      <trkpt lat="46.23815" lon="4.69825">
        <ele>306.436</ele>
        <time>2011-05-25T14:10:13Z</time>
      </trkpt>
      <trkpt lat="46.23819" lon="4.69832">
        <ele>306.88</ele>
        <time>2011-05-25T14:10:20Z</time>
      </trkpt>
      <trkpt lat="46.23828" lon="4.69845">
        <ele>305.828</ele>
        <time>2011-05-25T14:10:34Z</time>
      </trkpt>
      <trkpt lat="46.2383" lon="4.69847">
        <ele>305.763</ele>
        <time>2011-05-25T14:10:37Z</time>
      </trkpt>
      <trkpt lat="46.23846" lon="4.69874">
        <ele>302.654</ele>
        <time>2011-05-25T14:11:00Z</time>
      </trkpt>
      <trkpt lat="46.23863" lon="4.69897">
        <ele>298.988</ele>
        <time>2011-05-25T14:11:20Z</time>
      </trkpt>
      <trkpt lat="46.23879" lon="4.69921">
        <ele>296.543</ele>
        <time>2011-05-25T14:11:44Z</time>
      </trkpt>
      <trkpt lat="46.23888" lon="4.69932">
        <ele>294.502</ele>
        <time>2011-05-25T14:12:02Z</time>
      </trkpt>
      <trkpt lat="46.23888" lon="4.69933">
        <ele>294.31</ele>
        <time>2011-05-25T14:12:14Z</time>
      </trkpt>
      <trkpt lat="46.23879" lon="4.69953">
        <ele>293.67</ele>
        <time>2011-05-25T14:12:27Z</time>
      </trkpt>
      <trkpt lat="46.23863" lon="4.69983">
        <ele>292.492</ele>
        <time>2011-05-25T14:12:50Z</time>
      </trkpt>
      <trkpt lat="46.23855" lon="4.69997">
        <ele>291.942</ele>
        <time>2011-05-25T14:13:01Z</time>
      </trkpt>
      <trkpt lat="46.23853" lon="4.70003">
        <ele>291.847</ele>
        <time>2011-05-25T14:13:12Z</time>
      </trkpt>
      <trkpt lat="46.23836" lon="4.70032">
        <ele>291.318</ele>
        <time>2011-05-25T14:13:34Z</time>
      </trkpt>
      <trkpt lat="46.23819" lon="4.70061">
        <ele>291.159</ele>
        <time>2011-05-25T14:13:56Z</time>
      </trkpt>
      <trkpt lat="46.23803" lon="4.70094">
        <ele>289.78</ele>
        <time>2011-05-25T14:14:18Z</time>
      </trkpt>
      <trkpt lat="46.23784" lon="4.70121">
        <ele>288.255</ele>
        <time>2011-05-25T14:14:41Z</time>
      </trkpt>
      <trkpt lat="46.23779" lon="4.70133">
        <ele>288.094</ele>
        <time>2011-05-25T14:14:57Z</time>
      </trkpt>
      <trkpt lat="46.23767" lon="4.70162">
        <ele>286.994</ele>
        <time>2011-05-25T14:15:17Z</time>
      </trkpt>
      <trkpt lat="46.2375" lon="4.70198">
        <ele>286.16</ele>
        <time>2011-05-25T14:15:41Z</time>
      </trkpt>
      <trkpt lat="46.23744" lon="4.70209">
        <ele>285.653</ele>
        <time>2011-05-25T14:15:49Z</time>
      </trkpt>
      <trkpt lat="46.23723" lon="4.7023">
        <ele>285.798</ele>
        <time>2011-05-25T14:16:12Z</time>
      </trkpt>
      <trkpt lat="46.23718" lon="4.70235">
        <ele>285.538</ele>
        <time>2011-05-25T14:16:25Z</time>
      </trkpt>
      <trkpt lat="46.23719" lon="4.70235">
        <ele>285.172</ele>
        <time>2011-05-25T14:16:33Z</time>
      </trkpt>
      <trkpt lat="46.23703" lon="4.70262">
        <ele>284.701</ele>
        <time>2011-05-25T14:16:52Z</time>
      </trkpt>
      <trkpt lat="46.23685" lon="4.70282">
        <ele>283.973</ele>
        <time>2011-05-25T14:17:35Z</time>
      </trkpt>
      <trkpt lat="46.23667" lon="4.7031">
        <ele>282.974</ele>
        <time>2011-05-25T14:17:56Z</time>
      </trkpt>
      <trkpt lat="46.23658" lon="4.70323">
        <ele>281.447</ele>
        <time>2011-05-25T14:18:15Z</time>
      </trkpt>
      <trkpt lat="46.2365" lon="4.70341">
        <ele>280.306</ele>
        <time>2011-05-25T14:18:28Z</time>
      </trkpt>
      <trkpt lat="46.23634" lon="4.70367">
        <ele>279.4</ele>
        <time>2011-05-25T14:18:47Z</time>
      </trkpt>
      <trkpt lat="46.23612" lon="4.70395">
        <ele>277.637</ele>
        <time>2011-05-25T14:19:13Z</time>
      </trkpt>
      <trkpt lat="46.23607" lon="4.70404">
        <ele>277.043</ele>
        <time>2011-05-25T14:19:29Z</time>
      </trkpt>
      <trkpt lat="46.23611" lon="4.70425">
        <ele>273.898</ele>
        <time>2011-05-25T14:19:44Z</time>
      </trkpt>
      <trkpt lat="46.23616" lon="4.70443">
        <ele>270.725</ele>
        <time>2011-05-25T14:19:59Z</time>
      </trkpt>
      <trkpt lat="46.23617" lon="4.70447">
        <ele>270.341</ele>
        <time>2011-05-25T14:20:31Z</time>
      </trkpt>
      <trkpt lat="46.23618" lon="4.70451">
        <ele>269.116</ele>
        <time>2011-05-25T14:20:34Z</time>
      </trkpt>
      <trkpt lat="46.23622" lon="4.70459">
        <ele>267.635</ele>
        <time>2011-05-25T14:20:40Z</time>
      </trkpt>
      <trkpt lat="46.23623" lon="4.70467">
        <ele>265.899</ele>
        <time>2011-05-25T14:20:45Z</time>
      </trkpt>
      <trkpt lat="46.23601" lon="4.70494">
        <ele>263.842</ele>
        <time>2011-05-25T14:21:07Z</time>
      </trkpt>
      <trkpt lat="46.23574" lon="4.70521">
        <ele>262.161</ele>
        <time>2011-05-25T14:21:33Z</time>
      </trkpt>
      <trkpt lat="46.23554" lon="4.70542">
        <ele>261.295</ele>
        <time>2011-05-25T14:21:54Z</time>
      </trkpt>
      <trkpt lat="46.23535" lon="4.70562">
        <ele>260.211</ele>
        <time>2011-05-25T14:22:14Z</time>
      </trkpt>
      <trkpt lat="46.23509" lon="4.70574">
        <ele>259.672</ele>
        <time>2011-05-25T14:22:37Z</time>
      </trkpt>
      <trkpt lat="46.2351" lon="4.70585">
        <ele>259.27</ele>
        <time>2011-05-25T14:22:53Z</time>
      </trkpt>
      <trkpt lat="46.23512" lon="4.70586">
        <ele>259.068</ele>
        <time>2011-05-25T14:22:57Z</time>
      </trkpt>
      <trkpt lat="46.23535" lon="4.70614">
        <ele>258.758</ele>
        <time>2011-05-25T14:23:22Z</time>
      </trkpt>
      <trkpt lat="46.2354" lon="4.70635">
        <ele>258.348</ele>
        <time>2011-05-25T14:23:36Z</time>
      </trkpt>
      <trkpt lat="46.23542" lon="4.70642">
        <ele>258.834</ele>
        <time>2011-05-25T14:23:40Z</time>
      </trkpt>
      <trkpt lat="46.23553" lon="4.70677">
        <ele>258.425</ele>
        <time>2011-05-25T14:24:06Z</time>
      </trkpt>
      <trkpt lat="46.23555" lon="4.70718">
        <ele>259.276</ele>
        <time>2011-05-25T14:24:31Z</time>
      </trkpt>
      <trkpt lat="46.2355" lon="4.70762">
        <ele>260.584</ele>
        <time>2011-05-25T14:24:59Z</time>
      </trkpt>
      <trkpt lat="46.23544" lon="4.70796">
        <ele>261.775</ele>
        <time>2011-05-25T14:25:21Z</time>
      </trkpt>
      <trkpt lat="46.23535" lon="4.7083">
        <ele>263.199</ele>
        <time>2011-05-25T14:25:45Z</time>
      </trkpt>
      <trkpt lat="46.23541" lon="4.70853">
        <ele>265.369</ele>
        <time>2011-05-25T14:26:07Z</time>
      </trkpt>
      <trkpt lat="46.23538" lon="4.70859">
        <ele>265.773</ele>
        <time>2011-05-25T14:26:12Z</time>
      </trkpt>
      <trkpt lat="46.23527" lon="4.70879">
        <ele>267.196</ele>
        <time>2011-05-25T14:27:33Z</time>
      </trkpt>
      <trkpt lat="46.23523" lon="4.709">
        <ele>267.38</ele>
        <time>2011-05-25T14:27:52Z</time>
      </trkpt>
      <trkpt lat="46.23511" lon="4.70923">
        <ele>267.439</ele>
        <time>2011-05-25T14:28:09Z</time>
      </trkpt>
      <trkpt lat="46.23506" lon="4.70939">
        <ele>267.267</ele>
        <time>2011-05-25T14:28:26Z</time>
      </trkpt>
      <trkpt lat="46.235" lon="4.70965">
        <ele>267.485</ele>
        <time>2011-05-25T14:28:45Z</time>
      </trkpt>
      <trkpt lat="46.23495" lon="4.70985">
        <ele>267.715</ele>
        <time>2011-05-25T14:29:00Z</time>
      </trkpt>
      <trkpt lat="46.23492" lon="4.71019">
        <ele>267.857</ele>
        <time>2011-05-25T14:29:24Z</time>
      </trkpt>
      <trkpt lat="46.23494" lon="4.71026">
        <ele>270.035</ele>
        <time>2011-05-25T14:29:38Z</time>
      </trkpt>
      <trkpt lat="46.23495" lon="4.7103">
        <ele>271.643</ele>
        <time>2011-05-25T14:29:51Z</time>
      </trkpt>
      <trkpt lat="46.23499" lon="4.7103">
        <ele>271.487</ele>
        <time>2011-05-25T14:30:15Z</time>
      </trkpt>
      <trkpt lat="46.23513" lon="4.71028">
        <ele>272.157</ele>
        <time>2011-05-25T14:30:34Z</time>
      </trkpt>
      <trkpt lat="46.23529" lon="4.71022">
        <ele>272.897</ele>
        <time>2011-05-25T14:30:49Z</time>
      </trkpt>
      <trkpt lat="46.23555" lon="4.71006">
        <ele>274.676</ele>
        <time>2011-05-25T14:31:15Z</time>
      </trkpt>
      <trkpt lat="46.23575" lon="4.70995">
        <ele>275.137</ele>
        <time>2011-05-25T14:31:35Z</time>
      </trkpt>
      <trkpt lat="46.23579" lon="4.70991">
        <ele>275.261</ele>
        <time>2011-05-25T14:31:39Z</time>
      </trkpt>
      <trkpt lat="46.23592" lon="4.70979">
        <ele>275.321</ele>
        <time>2011-05-25T14:31:53Z</time>
      </trkpt>
      <trkpt lat="46.23605" lon="4.70981">
        <ele>276.453</ele>
        <time>2011-05-25T14:37:48Z</time>
      </trkpt>
    </trkseg>
  </trk>
</gpx>